Observation data for Earth on 11/17/2019      Previous  Date       Current Mesonet Observations  Soil Data  Daily Summary Page  Observations in Plain Language
KEA1 170600Z 29004KT 06/M00 A2999 RMK A01 T00641002  RH  063%=      5-min Rain = 0
KEA1 170601Z 30004KT 06/M00 A2999 RMK A01 T00631002  RH  063%=      5-min Rain = 0
KEA1 170602Z 31004KT 07/M00 A2999 RMK A01 T00651001  RH  063%=      5-min Rain = 0
KEA1 170603Z 30004KT 07/M00 A2999 RMK A01 T00661001  RH  062%=      5-min Rain = 0
KEA1 170604Z 29004KT 07/M00 A2999 RMK A01 T00661001  RH  062%=      5-min Rain = 0
KEA1 170605Z 28004KT 07/M00 A2999 RMK A01 T00661002  RH  062%=      5-min Rain = 0
KEA1 170606Z 28004KT 07/M00 A2999 RMK A01 T00651002  RH  062%=      5-min Rain = 0
KEA1 170607Z 28004KT 06/M00 A2999 RMK A01 T00641003  RH  062%=      5-min Rain = 0
KEA1 170608Z 29005KT 06/M01 A2999 RMK A01 T00621005  RH  062%=      5-min Rain = 0
KEA1 170609Z 29005KT 06/M00 A2999 RMK A01 T00601003  RH  064%=      5-min Rain = 0
KEA1 170610Z 29004KT 06/00 A2999 RMK A01 T00590003  RH  067%=      5-min Rain = 0
KEA1 170611Z 29004KT 06/01 A2999 RMK A01 T00590006  RH  069%=      5-min Rain = 0
KEA1 170612Z 28004KT 06/01 A2999 RMK A01 T00590006  RH  068%=      5-min Rain = 0
KEA1 170613Z 28004KT 06/01 A2999 RMK A01 T00600005  RH  068%=      5-min Rain = 0
KEA1 170614Z 29004KT 06/01 A2999 RMK A01 T00600005  RH  067%=      5-min Rain = 0
KEA1 170615Z 28004KT 06/00 A2999 RMK A01 T00610004  RH  067%=      5-min Rain = 0
KEA1 170616Z 27004KT 06/00 A2999 RMK A01 T00610003  RH  066%=      5-min Rain = 0
KEA1 170617Z 28004KT 06/00 A2999 RMK A01 T00610004  RH  067%=      5-min Rain = 0
KEA1 170618Z 29004KT 06/00 A2999 RMK A01 T00620004  RH  066%=      5-min Rain = 0
KEA1 170619Z 29004KT 06/00 A2999 RMK A01 T00630003  RH  065%=      5-min Rain = 0
KEA1 170620Z 29005KT 06/00 A2999 RMK A01 T00620001  RH  065%=      5-min Rain = 0
KEA1 170621Z 30005KT 06/00 A2999 RMK A01 T00600001  RH  066%=      5-min Rain = 0
KEA1 170622Z 30005KT 06/M00 A2999 RMK A01 T00581001  RH  066%=      5-min Rain = 0
KEA1 170623Z 30005KT 06/M00 A2999 RMK A01 T00551003  RH  066%=      5-min Rain = 0
KEA1 170624Z 30005KT 05/M00 A2999 RMK A01 T00521003  RH  067%=      5-min Rain = 0
KEA1 170625Z 30005KT 05/M00 A2999 RMK A01 T00511002  RH  068%=      5-min Rain = 0
KEA1 170626Z 30006KT 05/M01 A2999 RMK A01 T00511005  RH  067%=      5-min Rain = 0
KEA1 170627Z 29005KT 05/M01 A2999 RMK A01 T00481008  RH  067%=      5-min Rain = 0
KEA1 170628Z 30005KT 05/M01 A2999 RMK A01 T00461009  RH  067%=      5-min Rain = 0
KEA1 170629Z 29006KT 05/M01 A2999 RMK A01 T00451009  RH  068%=      5-min Rain = 0
KEA1 170630Z 29006KT 04/M01 A2999 RMK A01 T00431010  RH  069%=      5-min Rain = 0
KEA1 170631Z 30005KT 04/M01 A2999 RMK A01 T00401010  RH  070%=      5-min Rain = 0
KEA1 170632Z 30005KT 04/M01 A2999 RMK A01 T00401008  RH  071%=      5-min Rain = 0
KEA1 170633Z 30005KT 04/M01 A2999 RMK A01 T00391008  RH  071%=      5-min Rain = 0
KEA1 170634Z 29005KT 04/M01 A2999 RMK A01 T00391008  RH  072%=      5-min Rain = 0
KEA1 170635Z 29005KT 04/M01 A2999 RMK A01 T00391008  RH  071%=      5-min Rain = 0
KEA1 170636Z 29005KT 04/M01 A2999 RMK A01 T00391008  RH  071%=      5-min Rain = 0
KEA1 170637Z 29005KT 04/M01 A2999 RMK A01 T00401006  RH  072%=      5-min Rain = 0
KEA1 170638Z 29006KT 04/M01 A2999 RMK A01 T00411006  RH  071%=      5-min Rain = 0
KEA1 170639Z 29006KT 04/M01 A2999 RMK A01 T00411007  RH  071%=      5-min Rain = 0
KEA1 170640Z 29006KT 04/M01 A2999 RMK A01 T00411007  RH  071%=      5-min Rain = 0
KEA1 170641Z 29006KT 04/M01 A30 RMK A01 T00411008  RH  071%=      5-min Rain = 0
KEA1 170642Z 29006KT 04/M01 A30 RMK A01 T00391009  RH  071%=      5-min Rain = 0
KEA1 170643Z 29006KT 04/M01 A30 RMK A01 T00391008  RH  071%=      5-min Rain = 0
KEA1 170644Z 29006KT 04/M01 A30 RMK A01 T00391008  RH  071%=      5-min Rain = 0
KEA1 170645Z 29006KT 04/M01 A30 RMK A01 T00391009  RH  071%=      5-min Rain = 0
KEA1 170646Z 29006KT 04/M01 A30 RMK A01 T00381010  RH  071%=      5-min Rain = 0
KEA1 170647Z 30006KT 04/M01 A30 RMK A01 T00371010  RH  071%=      5-min Rain = 0
KEA1 170648Z 30006KT 04/M01 A30 RMK A01 T00361011  RH  071%=      5-min Rain = 0
KEA1 170649Z 30006KT 04/M01 A30 RMK A01 T00351011  RH  072%=      5-min Rain = 0
KEA1 170650Z 30006KT 03/M01 A30 RMK A01 T00341010  RH  073%=      5-min Rain = 0
KEA1 170651Z 30006KT 04/M01 A30 RMK A01 T00351009  RH  073%=      5-min Rain = 0
KEA1 170652Z 30006KT 04/M01 A30 RMK A01 T00351007  RH  074%=      5-min Rain = 0
KEA1 170653Z 30006KT 04/M01 A30 RMK A01 T00361006  RH  074%=      5-min Rain = 0
KEA1 170654Z 30006KT 04/M01 A30 RMK A01 T00361007  RH  073%=      5-min Rain = 0
KEA1 170655Z 30006KT 04/M01 A30 RMK A01 T00361007  RH  073%=      5-min Rain = 0
KEA1 170656Z 31007KT 04/M01 A30 RMK A01 T00361006  RH  074%=      5-min Rain = 0
KEA1 170657Z 31007KT 04/M01 A30 RMK A01 T00351006  RH  074%=      5-min Rain = 0
KEA1 170658Z 30007KT 04/M01 A30 RMK A01 T00351005  RH  075%=      5-min Rain = 0
KEA1 170659Z 30007KT 04/M01 A30 RMK A01 T00351005  RH  075%=      5-min Rain = 0
KEA1 170700Z 31007KT 04/M01 A30 RMK A01 T00351005  RH  075%=      5-min Rain = 0
KEA1 170701Z 31007KT 04/M01 A30 RMK A01 T00351005  RH  075%=      5-min Rain = 0
KEA1 170702Z 31007KT 04/M01 A30 RMK A01 T00351005  RH  075%=      5-min Rain = 0
KEA1 170703Z 31007KT 03/M01 A30 RMK A01 T00341006  RH  075%=      5-min Rain = 0
KEA1 170704Z 31006KT 03/M01 A30 RMK A01 T00321008  RH  075%=      5-min Rain = 0
KEA1 170705Z 31007KT 03/M01 A30 RMK A01 T00321007  RH  076%=      5-min Rain = 0
KEA1 170706Z 31006KT 03/M01 A30 RMK A01 T00321006  RH  076%=      5-min Rain = 0
KEA1 170707Z 30006KT 03/M01 A30 RMK A01 T00331005  RH  076%=      5-min Rain = 0
KEA1 170708Z 31006KT 03/M01 A30 RMK A01 T00331005  RH  076%=      5-min Rain = 0
KEA1 170709Z 31006KT 03/M01 A30 RMK A01 T00331005  RH  077%=      5-min Rain = 0
KEA1 170710Z 31006KT 03/M00 A30 RMK A01 T00331003  RH  077%=      5-min Rain = 0
KEA1 170711Z 31006KT 03/M00 A2999 RMK A01 T00341003  RH  077%=      5-min Rain = 0
KEA1 170712Z 31006KT 04/M00 A2999 RMK A01 T00351002  RH  077%=      5-min Rain = 0
KEA1 170713Z 31005KT 04/M00 A2999 RMK A01 T00361001  RH  077%=      5-min Rain = 0
KEA1 170714Z 31006KT 04/M00 A2999 RMK A01 T00361001  RH  076%=      5-min Rain = 0
KEA1 170715Z 31005KT 04/M00 A2999 RMK A01 T00371001  RH  076%=      5-min Rain = 0
KEA1 170716Z 31005KT 04/M00 A2999 RMK A01 T00371001  RH  076%=      5-min Rain = 0
KEA1 170717Z 31004KT 04/00 A2999 RMK A01 T003700-0  RH  076%=      5-min Rain = 0
KEA1 170718Z 32004KT 04/00 A2999 RMK A01 T003700-0  RH  077%=      5-min Rain = 0
KEA1 170719Z 32004KT 04/00 A2999 RMK A01 T00380001  RH  077%=      5-min Rain = 0
KEA1 170720Z 31004KT 04/00 A2999 RMK A01 T00380001  RH  077%=      5-min Rain = 0
KEA1 170721Z 31005KT 04/00 A30 RMK A01 T00380002  RH  077%=      5-min Rain = 0
KEA1 170722Z 31006KT 04/00 A30 RMK A01 T00380002  RH  077%=      5-min Rain = 0
KEA1 170723Z 31007KT 04/00 A30 RMK A01 T00380001  RH  077%=      5-min Rain = 0
KEA1 170724Z 32008KT 04/00 A30 RMK A01 T003600-0  RH  077%=      5-min Rain = 0
KEA1 170725Z 32008KT 03/M00 A30 RMK A01 T00341002  RH  077%=      5-min Rain = 0
KEA1 170726Z 32008KT 03/M00 A30 RMK A01 T00321003  RH  078%=      5-min Rain = 0
KEA1 170727Z 32008KT 03/M00 A30 RMK A01 T00321004  RH  078%=      5-min Rain = 0
KEA1 170728Z 32008KT 03/M01 A30 RMK A01 T00301006  RH  077%=      5-min Rain = 0
KEA1 170729Z 33008KT 03/M01 A30 RMK A01 T00291008  RH  077%=      5-min Rain = 0
KEA1 170730Z 33008KT 03/M01 A30 RMK A01 T00281008  RH  077%=      5-min Rain = 0
KEA1 170731Z 33009KT 03/M01 A30 RMK A01 T00281006  RH  078%=      5-min Rain = 0
KEA1 170732Z 34008KT 03/M00 A30 RMK A01 T00311004  RH  078%=      5-min Rain = 0
KEA1 170733Z 33009KT 03/M01 A30 RMK A01 T00341005  RH  076%=      5-min Rain = 0
KEA1 170734Z 34009KT 04/M01 A3001 RMK A01 T00351006  RH  075%=      5-min Rain = 0
KEA1 170735Z 34010KT 04/M01 A3001 RMK A01 T00371006  RH  074%=      5-min Rain = 0
KEA1 170736Z 34010KT 04/M01 A3001 RMK A01 T00381006  RH  073%=      5-min Rain = 0
KEA1 170737Z 34010KT 04/M01 A3001 RMK A01 T00391008  RH  072%=      5-min Rain = 0
KEA1 170738Z 34009KT 04/M01 A3001 RMK A01 T00391008  RH  071%=      5-min Rain = 0
KEA1 170739Z 34009KT 04/M01 A3001 RMK A01 T00391008  RH  071%=      5-min Rain = 0
KEA1 170740Z 34008KT 04/M01 A3001 RMK A01 T00401008  RH  071%=      5-min Rain = 0
KEA1 170741Z 34008KT 04/M01 A3001 RMK A01 T00401008  RH  071%=      5-min Rain = 0
KEA1 170742Z 34008KT 04/M01 A3001 RMK A01 T00411008  RH  070%=      5-min Rain = 0
KEA1 170743Z 34008KT 04/M01 A3001 RMK A01 T00421009  RH  070%=      5-min Rain = 0
KEA1 170744Z 34007KT 04/M01 A3001 RMK A01 T00431008  RH  069%=      5-min Rain = 0
KEA1 170745Z 34007KT 04/M01 A3001 RMK A01 T00441008  RH  069%=      5-min Rain = 0
KEA1 170746Z 35007KT 05/M01 A3001 RMK A01 T00451007  RH  069%=      5-min Rain = 0
KEA1 170747Z 35008KT 05/M01 A3001 RMK A01 T00471007  RH  068%=      5-min Rain = 0
KEA1 170748Z 36009KT 05/M01 A3001 RMK A01 T00471007  RH  068%=      5-min Rain = 0
KEA1 170749Z 36009KT 05/M01 A3001 RMK A01 T00491006  RH  068%=      5-min Rain = 0
KEA1 170750Z 36009KT 05/M01 A3001 RMK A01 T00501006  RH  067%=      5-min Rain = 0
KEA1 170751Z 00008KT 05/M01 A3001 RMK A01 T00511005  RH  067%=      5-min Rain = 0
KEA1 170752Z 36007KT 05/M01 A3001 RMK A01 T00511005  RH  067%=      5-min Rain = 0
KEA1 170753Z 00008KT 05/M01 A3002 RMK A01 T00521005  RH  067%=      5-min Rain = 0
KEA1 170754Z 36008KT 05/M00 A3002 RMK A01 T00531004  RH  067%=      5-min Rain = 0
KEA1 170755Z 00008KT 06/M00 A3002 RMK A01 T00561003  RH  066%=      5-min Rain = 0
KEA1 170756Z 00009KT 06/M00 A3002 RMK A01 T00571003  RH  065%=      5-min Rain = 0
KEA1 170757Z 01010KT 06/M00 A3001 RMK A01 T00571003  RH  065%=      5-min Rain = 0
KEA1 170758Z 00009KT 06/M00 A3001 RMK A01 T00591001  RH  065%=      5-min Rain = 0
KEA1 170759Z 01012KT 06/00 A3001 RMK A01 T006000-0  RH  065%=      5-min Rain = 0
KEA1 170800Z 00012KT 07/00 A3001 RMK A01 T00650003  RH  065%=      5-min Rain = 0
KEA1 170801Z 01012KT 07/00 A3001 RMK A01 T00700004  RH  063%=      5-min Rain = 0
KEA1 170802Z 01012KT 07/00 A3001 RMK A01 T00720003  RH  062%=      5-min Rain = 0
KEA1 170803Z 01012KT 08/00 A3001 RMK A01 T00750003  RH  060%=      5-min Rain = 0
KEA1 170804Z 01012KT 08/00 A3001 RMK A01 T00760002  RH  060%=      5-min Rain = 0
KEA1 170805Z 01013KT 08/00 A3001 RMK A01 T00770002  RH  059%=      5-min Rain = 0
KEA1 170806Z 01013G18KT 08/00 A3001 RMK A01 T00780001  RH  058%=      5-min Rain = 0
KEA1 170807Z 01013KT 08/00 A3001 RMK A01 T00790001  RH  058%=      5-min Rain = 0
KEA1 170808Z 01014KT 08/00 A3001 RMK A01 T00800001  RH  057%=      5-min Rain = 0
KEA1 170809Z 01014KT 08/00 A3002 RMK A01 T00820001  RH  056%=      5-min Rain = 0
KEA1 170810Z 00013KT 08/00 A3002 RMK A01 T008400-0  RH  056%=      5-min Rain = 0
KEA1 170811Z 01013KT 09/M00 A3002 RMK A01 T00851001  RH  055%=      5-min Rain = 0
KEA1 170812Z 01015KT 09/M00 A3002 RMK A01 T00851002  RH  055%=      5-min Rain = 0
KEA1 170813Z 01015KT 09/M00 A3002 RMK A01 T00851002  RH  054%=      5-min Rain = 0
KEA1 170814Z 01015KT 09/M00 A3002 RMK A01 T00861003  RH  053%=      5-min Rain = 0
KEA1 170815Z 01016KT 09/M00 A3002 RMK A01 T00881003  RH  053%=      5-min Rain = 0
KEA1 170816Z 01017KT 09/M00 A3001 RMK A01 T00891004  RH  052%=      5-min Rain = 0
KEA1 170817Z 01017KT 09/M01 A3001 RMK A01 T00911005  RH  051%=      5-min Rain = 0
KEA1 170818Z 01017KT 09/M01 A3002 RMK A01 T00921006  RH  051%=      5-min Rain = 0
KEA1 170819Z 01019KT 09/M01 A3002 RMK A01 T00921006  RH  050%=      5-min Rain = 0
KEA1 170820Z 01018KT 09/M01 A3002 RMK A01 T00931007  RH  049%=      5-min Rain = 0
KEA1 170821Z 01017KT 09/M01 A3002 RMK A01 T00941008  RH  049%=      5-min Rain = 0
KEA1 170822Z 01021G26KT 09/M01 A3002 RMK A01 T00941009  RH  048%=      5-min Rain = 0
KEA1 170823Z 01018KT 10/M01 A3002 RMK A01 T00971009  RH  048%=      5-min Rain = 0
KEA1 170824Z 01020G25KT 10/M01 A3002 RMK A01 T00971010  RH  047%=      5-min Rain = 0
KEA1 170825Z 01017G23KT 10/M01 A3002 RMK A01 T00981010  RH  047%=      5-min Rain = 0
KEA1 170826Z 01020G25KT 10/M01 A3002 RMK A01 T00981012  RH  046%=      5-min Rain = 0
KEA1 170827Z 01023KT 10/M01 A3002 RMK A01 T00991012  RH  046%=      5-min Rain = 0
KEA1 170828Z 01020KT 10/M01 A3002 RMK A01 T01001013  RH  045%=      5-min Rain = 0
KEA1 170829Z 01020KT 10/M01 A3002 RMK A01 T01011013  RH  045%=      5-min Rain = 0
KEA1 170830Z 00018KT 10/M01 A3002 RMK A01 T01011014  RH  045%=      5-min Rain = 0
KEA1 170831Z 01021KT 10/M01 A3002 RMK A01 T01011014  RH  045%=      5-min Rain = 0
KEA1 170832Z 01020KT 10/M02 A3002 RMK A01 T01011015  RH  045%=      5-min Rain = 0
KEA1 170833Z 01021KT 10/M02 A3002 RMK A01 T01011015  RH  044%=      5-min Rain = 0
KEA1 170834Z 01019KT 10/M02 A3002 RMK A01 T01011016  RH  044%=      5-min Rain = 0
KEA1 170835Z 01022G28KT 10/M02 A3002 RMK A01 T01011016  RH  044%=      5-min Rain = 0
KEA1 170836Z 01022KT 10/M02 A3002 RMK A01 T01021017  RH  044%=      5-min Rain = 0
KEA1 170837Z 00021KT 10/M02 A3002 RMK A01 T01021017  RH  043%=      5-min Rain = 0
KEA1 170838Z 01022G29KT 10/M02 A3003 RMK A01 T01021017  RH  043%=      5-min Rain = 0
KEA1 170839Z 01022G28KT 10/M02 A3002 RMK A01 T01021018  RH  043%=      5-min Rain = 0
KEA1 170840Z 00021G27KT 10/M02 A3003 RMK A01 T01021018  RH  043%=      5-min Rain = 0
KEA1 170841Z 00023KT 10/M02 A3003 RMK A01 T01021018  RH  043%=      5-min Rain = 0
KEA1 170842Z 00019KT 10/M02 A3003 RMK A01 T01021019  RH  043%=      5-min Rain = 0
KEA1 170843Z 00022G28KT 10/M02 A3003 RMK A01 T01011019  RH  043%=      5-min Rain = 0
KEA1 170844Z 00024KT 10/M02 A3002 RMK A01 T01011019  RH  043%=      5-min Rain = 0
KEA1 170845Z 00021KT 10/M02 A3002 RMK A01 T01021019  RH  043%=      5-min Rain = 0
KEA1 170846Z 01025G32KT 10/M02 A3002 RMK A01 T01021019  RH  043%=      5-min Rain = 0
KEA1 170847Z 01020G28KT 10/M02 A3002 RMK A01 T01011020  RH  043%=      5-min Rain = 0
KEA1 170848Z 01021G27KT 10/M02 A3002 RMK A01 T01011020  RH  043%=      5-min Rain = 0
KEA1 170849Z 01022G29KT 10/M02 A3002 RMK A01 T01011019  RH  043%=      5-min Rain = 0
KEA1 170850Z 01022G29KT 10/M02 A3002 RMK A01 T01011019  RH  043%=      5-min Rain = 0
KEA1 170851Z 01022KT 10/M02 A3002 RMK A01 T01021020  RH  043%=      5-min Rain = 0
KEA1 170852Z 00024G29KT 10/M02 A3003 RMK A01 T01021020  RH  043%=      5-min Rain = 0
KEA1 170853Z 01022G27KT 10/M02 A3003 RMK A01 T01031019  RH  043%=      5-min Rain = 0
KEA1 170854Z 00022G28KT 10/M02 A3003 RMK A01 T01021020  RH  043%=      5-min Rain = 0
KEA1 170855Z 00019G24KT 10/M02 A3003 RMK A01 T01021019  RH  043%=      5-min Rain = 0
KEA1 170856Z 00021G27KT 10/M02 A3003 RMK A01 T01001020  RH  043%=      5-min Rain = 0
KEA1 170857Z 00024KT 10/M02 A3003 RMK A01 T01001020  RH  043%=      5-min Rain = 0
KEA1 170858Z 36021G27KT 10/M02 A3004 RMK A01 T01011019  RH  043%=      5-min Rain = 0
KEA1 170859Z 00020G28KT 10/M02 A3004 RMK A01 T01011019  RH  043%=      5-min Rain = 0
KEA1 170900Z 00020KT 10/M02 A3004 RMK A01 T01001019  RH  043%=      5-min Rain = 0
KEA1 170901Z 00021G26KT 10/M02 A3004 RMK A01 T00991019  RH  044%=      5-min Rain = 0
KEA1 170902Z 00021KT 10/M02 A3004 RMK A01 T00991019  RH  044%=      5-min Rain = 0
KEA1 170903Z 36021G27KT 10/M02 A3004 RMK A01 T00981019  RH  044%=      5-min Rain = 0
KEA1 170904Z 00021KT 10/M02 A3004 RMK A01 T00981019  RH  044%=      5-min Rain = 0
KEA1 170905Z 36023G29KT 10/M02 A3004 RMK A01 T00981019  RH  044%=      5-min Rain = 0
KEA1 170906Z 00022KT 10/M02 A3004 RMK A01 T00981019  RH  044%=      5-min Rain = 0
KEA1 170907Z 36024KT 10/M02 A3004 RMK A01 T00981019  RH  044%=      5-min Rain = 0
KEA1 170908Z 36025G30KT 10/M02 A3004 RMK A01 T00981019  RH  044%=      5-min Rain = 0
KEA1 170909Z 36024G29KT 10/M02 A3004 RMK A01 T00981019  RH  044%=      5-min Rain = 0
KEA1 170910Z 36023G29KT 10/M02 A3005 RMK A01 T00981019  RH  044%=      5-min Rain = 0
KEA1 170911Z 36024KT 10/M02 A3005 RMK A01 T00971019  RH  044%=      5-min Rain = 0
KEA1 170912Z 36022KT 10/M02 A3004 RMK A01 T00971019  RH  044%=      5-min Rain = 0
KEA1 170913Z 36020G26KT 10/M02 A3005 RMK A01 T00961019  RH  045%=      5-min Rain = 0
KEA1 170914Z 00021KT 10/M02 A3005 RMK A01 T00951019  RH  045%=      5-min Rain = 0
KEA1 170915Z 36021KT 10/M02 A3005 RMK A01 T00951019  RH  045%=      5-min Rain = 0
KEA1 170916Z 36020KT 09/M02 A3005 RMK A01 T00941019  RH  045%=      5-min Rain = 0
KEA1 170917Z 36024G31KT 09/M02 A3005 RMK A01 T00931018  RH  046%=      5-min Rain = 0
KEA1 170918Z 36026KT 09/M02 A3005 RMK A01 T00931018  RH  046%=      5-min Rain = 0
KEA1 170919Z 00027G34KT 09/M02 A3005 RMK A01 T00931017  RH  046%=      5-min Rain = 0
KEA1 170920Z 00024KT 09/M02 A3005 RMK A01 T00931016  RH  046%=      5-min Rain = 0
KEA1 170921Z 00027KT 09/M02 A3005 RMK A01 T00931016  RH  047%=      5-min Rain = 0
KEA1 170922Z 01025G31KT 09/M02 A3005 RMK A01 T00921016  RH  047%=      5-min Rain = 0
KEA1 170923Z 00023KT 09/M02 A3006 RMK A01 T00911016  RH  047%=      5-min Rain = 0
KEA1 170924Z 00024KT 09/M02 A3006 RMK A01 T00901016  RH  047%=      5-min Rain = 0
KEA1 170925Z 00023KT 09/M02 A3006 RMK A01 T00901015  RH  048%=      5-min Rain = 0
KEA1 170926Z 00021G26KT 09/M02 A3006 RMK A01 T00901015  RH  048%=      5-min Rain = 0
KEA1 170927Z 36023G29KT 09/M02 A3006 RMK A01 T00891015  RH  048%=      5-min Rain = 0
KEA1 170928Z 00023KT 09/M02 A3006 RMK A01 T00881015  RH  048%=      5-min Rain = 0
KEA1 170929Z 01020KT 09/M02 A3006 RMK A01 T00881015  RH  048%=      5-min Rain = 0
KEA1 170930Z 00024G29KT 09/M02 A3006 RMK A01 T00881015  RH  048%=      5-min Rain = 0
KEA1 170931Z 01023G28KT 09/M02 A3006 RMK A01 T00881015  RH  049%=      5-min Rain = 0
KEA1 170932Z 01021G26KT 09/M02 A3006 RMK A01 T00871015  RH  049%=      5-min Rain = 0
KEA1 170933Z 01024G30KT 09/M01 A3006 RMK A01 T00871014  RH  049%=      5-min Rain = 0
KEA1 170934Z 00021KT 09/M01 A3006 RMK A01 T00871014  RH  049%=      5-min Rain = 0
KEA1 170935Z 00022KT 09/M01 A3006 RMK A01 T00861014  RH  049%=      5-min Rain = 0
KEA1 170936Z 01018G23KT 09/M01 A3006 RMK A01 T00861014  RH  050%=      5-min Rain = 0
KEA1 170937Z 00025G31KT 09/M01 A3005 RMK A01 T00851014  RH  050%=      5-min Rain = 0
KEA1 170938Z 01024G31KT 09/M01 A3005 RMK A01 T00851013  RH  050%=      5-min Rain = 0
KEA1 170939Z 01022KT 09/M01 A3006 RMK A01 T00861013  RH  050%=      5-min Rain = 0
KEA1 170940Z 00022KT 09/M01 A3006 RMK A01 T00851013  RH  050%=      5-min Rain = 0
KEA1 170941Z 01020G26KT 09/M01 A3006 RMK A01 T00851013  RH  050%=      5-min Rain = 0
KEA1 170942Z 01021G26KT 08/M01 A3006 RMK A01 T00841013  RH  051%=      5-min Rain = 0
KEA1 170943Z 01021G27KT 08/M01 A3006 RMK A01 T00831012  RH  051%=      5-min Rain = 0
KEA1 170944Z 01021G26KT 08/M01 A3006 RMK A01 T00831012  RH  051%=      5-min Rain = 0
KEA1 170945Z 01019G24KT 08/M01 A3006 RMK A01 T00831012  RH  051%=      5-min Rain = 0
KEA1 170946Z 01019KT 08/M01 A3006 RMK A01 T00821012  RH  051%=      5-min Rain = 0
KEA1 170947Z 01024KT 08/M01 A3006 RMK A01 T00821012  RH  052%=      5-min Rain = 0
KEA1 170948Z 01020G26KT 08/M01 A3006 RMK A01 T00821012  RH  052%=      5-min Rain = 0
KEA1 170949Z 01020KT 08/M01 A3006 RMK A01 T00821012  RH  052%=      5-min Rain = 0
KEA1 170950Z 01019G25KT 08/M01 A3006 RMK A01 T00821011  RH  052%=      5-min Rain = 0
KEA1 170951Z 01019KT 08/M01 A3007 RMK A01 T00811011  RH  052%=      5-min Rain = 0
KEA1 170952Z 01018G24KT 08/M01 A3007 RMK A01 T00801012  RH  052%=      5-min Rain = 0
KEA1 170953Z 01022KT 08/M01 A3007 RMK A01 T00791011  RH  053%=      5-min Rain = 0
KEA1 170954Z 01021KT 08/M01 A3007 RMK A01 T00791011  RH  053%=      5-min Rain = 0
KEA1 170955Z 01019KT 08/M01 A3007 RMK A01 T00801011  RH  053%=      5-min Rain = 0
KEA1 170956Z 01021KT 08/M01 A3007 RMK A01 T00801011  RH  053%=      5-min Rain = 0
KEA1 170957Z 01019KT 08/M01 A3008 RMK A01 T00791011  RH  053%=      5-min Rain = 0
KEA1 170958Z 00019G24KT 08/M01 A3008 RMK A01 T00791011  RH  053%=      5-min Rain = 0
KEA1 170959Z 00021KT 08/M01 A3007 RMK A01 T00781011  RH  053%=      5-min Rain = 0
KEA1 171000Z 00018KT 08/M01 A3008 RMK A01 T00781011  RH  053%=      5-min Rain = 0
KEA1 171001Z 00016KT 08/M01 A3008 RMK A01 T00771011  RH  054%=      5-min Rain = 0
KEA1 171002Z 01019KT 08/M01 A3008 RMK A01 T00761011  RH  054%=      5-min Rain = 0
KEA1 171003Z 00019KT 08/M01 A3008 RMK A01 T00761011  RH  054%=      5-min Rain = 0
KEA1 171004Z 00022KT 08/M01 A3008 RMK A01 T00761011  RH  054%=      5-min Rain = 0
KEA1 171005Z 00017KT 08/M01 A3008 RMK A01 T00761011  RH  054%=      5-min Rain = 0
KEA1 171006Z 00017KT 08/M01 A3008 RMK A01 T00761011  RH  054%=      5-min Rain = 0
KEA1 171007Z 36017KT 08/M01 A3008 RMK A01 T00751011  RH  055%=      5-min Rain = 0
KEA1 171008Z 36019G24KT 08/M01 A3008 RMK A01 T00751010  RH  055%=      5-min Rain = 0
KEA1 171009Z 01017G22KT 08/M01 A3008 RMK A01 T00751010  RH  055%=      5-min Rain = 0
KEA1 171010Z 00018KT 07/M01 A3008 RMK A01 T00741011  RH  055%=      5-min Rain = 0
KEA1 171011Z 36017KT 07/M01 A3008 RMK A01 T00741010  RH  055%=      5-min Rain = 0
KEA1 171012Z 00016KT 07/M01 A3008 RMK A01 T00731010  RH  055%=      5-min Rain = 0
KEA1 171013Z 36019G24KT 07/M01 A3008 RMK A01 T00731010  RH  056%=      5-min Rain = 0
KEA1 171014Z 00019KT 07/M01 A3008 RMK A01 T00731010  RH  056%=      5-min Rain = 0
KEA1 171015Z 00018KT 07/M01 A3008 RMK A01 T00731010  RH  056%=      5-min Rain = 0
KEA1 171016Z 00017KT 07/M01 A3008 RMK A01 T00731010  RH  056%=      5-min Rain = 0
KEA1 171017Z 01020G25KT 07/M01 A3008 RMK A01 T00721010  RH  056%=      5-min Rain = 0
KEA1 171018Z 00020KT 07/M01 A3008 RMK A01 T00731009  RH  056%=      5-min Rain = 0
KEA1 171019Z 00018G23KT 07/M01 A3009 RMK A01 T00731009  RH  056%=      5-min Rain = 0
KEA1 171020Z 00021KT 07/M01 A3008 RMK A01 T00721009  RH  056%=      5-min Rain = 0
KEA1 171021Z 01020KT 07/M01 A3008 RMK A01 T00721009  RH  056%=      5-min Rain = 0
KEA1 171022Z 01018G24KT 07/M01 A3009 RMK A01 T00721009  RH  056%=      5-min Rain = 0
KEA1 171023Z 00019KT 07/M01 A3009 RMK A01 T00721009  RH  056%=      5-min Rain = 0
KEA1 171024Z 00020KT 07/M01 A3009 RMK A01 T00711009  RH  057%=      5-min Rain = 0
KEA1 171025Z 00018KT 07/M01 A3009 RMK A01 T00711009  RH  057%=      5-min Rain = 0
KEA1 171026Z 00016G22KT 07/M01 A3009 RMK A01 T00711009  RH  057%=      5-min Rain = 0
KEA1 171027Z 00020KT 07/M01 A3009 RMK A01 T00701009  RH  057%=      5-min Rain = 0
KEA1 171028Z 36021G28KT 07/M01 A3009 RMK A01 T00701009  RH  057%=      5-min Rain = 0
KEA1 171029Z 36018G24KT 07/M01 A3009 RMK A01 T00711008  RH  057%=      5-min Rain = 0
KEA1 171030Z 01020KT 07/M01 A3009 RMK A01 T00711008  RH  057%=      5-min Rain = 0
KEA1 171031Z 00021KT 07/M01 A3009 RMK A01 T00711008  RH  057%=      5-min Rain = 0
KEA1 171032Z 00019KT 07/M01 A3009 RMK A01 T00701008  RH  057%=      5-min Rain = 0
KEA1 171033Z 00017G22KT 07/M01 A3009 RMK A01 T00701009  RH  057%=      5-min Rain = 0
KEA1 171034Z 00018KT 07/M01 A3009 RMK A01 T00691009  RH  058%=      5-min Rain = 0
KEA1 171035Z 00018KT 07/M01 A3009 RMK A01 T00691008  RH  058%=      5-min Rain = 0
KEA1 171036Z 01018KT 07/M01 A3009 RMK A01 T00691008  RH  058%=      5-min Rain = 0
KEA1 171037Z 00021G26KT 07/M01 A3009 RMK A01 T00691008  RH  058%=      5-min Rain = 0
KEA1 171038Z 36016KT 07/M01 A3009 RMK A01 T00691008  RH  058%=      5-min Rain = 0
KEA1 171039Z 36019G24KT 07/M01 A3009 RMK A01 T00691008  RH  058%=      5-min Rain = 0
KEA1 171040Z 01016KT 07/M01 A301 RMK A01 T00691008  RH  058%=      5-min Rain = 0
KEA1 171041Z 00018G23KT 07/M01 A301 RMK A01 T00681008  RH  058%=      5-min Rain = 0
KEA1 171042Z 01016KT 07/M01 A301 RMK A01 T00681008  RH  058%=      5-min Rain = 0
KEA1 171043Z 00019KT 07/M01 A301 RMK A01 T00671008  RH  059%=      5-min Rain = 0
KEA1 171044Z 00018G24KT 07/M01 A301 RMK A01 T00681008  RH  059%=      5-min Rain = 0
KEA1 171045Z 01017KT 07/M01 A301 RMK A01 T00681008  RH  059%=      5-min Rain = 0
KEA1 171046Z 00017KT 07/M01 A301 RMK A01 T00671008  RH  059%=      5-min Rain = 0
KEA1 171047Z 00016KT 07/M01 A301 RMK A01 T00671008  RH  059%=      5-min Rain = 0
KEA1 171048Z 00015KT 07/M01 A301 RMK A01 T00661008  RH  059%=      5-min Rain = 0
KEA1 171049Z 01013KT 07/M01 A301 RMK A01 T00651008  RH  059%=      5-min Rain = 0
KEA1 171050Z 00013KT 06/M01 A301 RMK A01 T00641008  RH  060%=      5-min Rain = 0
KEA1 171051Z 00017KT 06/M01 A301 RMK A01 T00631009  RH  060%=      5-min Rain = 0
KEA1 171052Z 00015KT 06/M01 A301 RMK A01 T00641008  RH  060%=      5-min Rain = 0
KEA1 171053Z 36015G20KT 06/M01 A301 RMK A01 T00641008  RH  060%=      5-min Rain = 0
KEA1 171054Z 36017KT 06/M01 A301 RMK A01 T00641008  RH  060%=      5-min Rain = 0
KEA1 171055Z 00018KT 06/M01 A301 RMK A01 T00641008  RH  060%=      5-min Rain = 0
KEA1 171056Z 01017KT 06/M01 A301 RMK A01 T00641008  RH  060%=      5-min Rain = 0
KEA1 171057Z 36015KT 06/M01 A301 RMK A01 T00641008  RH  060%=      5-min Rain = 0
KEA1 171058Z 00015KT 06/M01 A301 RMK A01 T00641008  RH  060%=      5-min Rain = 0
KEA1 171059Z 01015KT 06/M01 A301 RMK A01 T00631008  RH  060%=      5-min Rain = 0
KEA1 171100Z 36014KT 06/M01 A3011 RMK A01 T00631007  RH  061%=      5-min Rain = 0
KEA1 171101Z 00014G19KT 06/M01 A3011 RMK A01 T00621008  RH  061%=      5-min Rain = 0
KEA1 171102Z 01014G19KT 06/M01 A3011 RMK A01 T00621008  RH  061%=      5-min Rain = 0
KEA1 171103Z 00014KT 06/M01 A3011 RMK A01 T00621007  RH  061%=      5-min Rain = 0
KEA1 171104Z 00014KT 06/M01 A3011 RMK A01 T00621007  RH  061%=      5-min Rain = 0
KEA1 171105Z 36015KT 06/M01 A3011 RMK A01 T00621007  RH  061%=      5-min Rain = 0
KEA1 171106Z 00015KT 06/M01 A3011 RMK A01 T00621007  RH  061%=      5-min Rain = 0
KEA1 171107Z 36017KT 06/M01 A3011 RMK A01 T00621007  RH  061%=      5-min Rain = 0
KEA1 171108Z 00014KT 06/M01 A3011 RMK A01 T00621007  RH  061%=      5-min Rain = 0
KEA1 171109Z 00015KT 06/M01 A3011 RMK A01 T00621007  RH  061%=      5-min Rain = 0
KEA1 171110Z 00013KT 06/M01 A3011 RMK A01 T00621007  RH  061%=      5-min Rain = 0
KEA1 171111Z 00012KT 06/M01 A3011 RMK A01 T00611007  RH  061%=      5-min Rain = 0
KEA1 171112Z 36013KT 06/M01 A3011 RMK A01 T00601008  RH  062%=      5-min Rain = 0
KEA1 171113Z 00013KT 06/M01 A3011 RMK A01 T00591008  RH  062%=      5-min Rain = 0
KEA1 171114Z 00013KT 06/M01 A3012 RMK A01 T00591008  RH  062%=      5-min Rain = 0
KEA1 171115Z 00013KT 06/M01 A3012 RMK A01 T00591007  RH  063%=      5-min Rain = 0
KEA1 171116Z 36014KT 06/M01 A3012 RMK A01 T00581007  RH  063%=      5-min Rain = 0
KEA1 171117Z 00014KT 06/M01 A3012 RMK A01 T00581007  RH  063%=      5-min Rain = 0
KEA1 171118Z 00014KT 06/M01 A3012 RMK A01 T00591007  RH  063%=      5-min Rain = 0
KEA1 171119Z 00014KT 06/M01 A3012 RMK A01 T00591007  RH  063%=      5-min Rain = 0
KEA1 171120Z 36015KT 06/M01 A3012 RMK A01 T00591007  RH  063%=      5-min Rain = 0
KEA1 171121Z 36014KT 06/M01 A3012 RMK A01 T00591007  RH  063%=      5-min Rain = 0
KEA1 171122Z 36014KT 06/M01 A3012 RMK A01 T00591006  RH  063%=      5-min Rain = 0
KEA1 171123Z 00012KT 06/M01 A3012 RMK A01 T00591006  RH  063%=      5-min Rain = 0
KEA1 171124Z 00012KT 06/M01 A3012 RMK A01 T00581007  RH  063%=      5-min Rain = 0
KEA1 171125Z 00013KT 06/M01 A3012 RMK A01 T00571007  RH  064%=      5-min Rain = 0
KEA1 171126Z 00013KT 06/M01 A3012 RMK A01 T00561007  RH  064%=      5-min Rain = 0
KEA1 171127Z 00013KT 06/M01 A3012 RMK A01 T00561007  RH  064%=      5-min Rain = 0
KEA1 171128Z 00011KT 06/M01 A3012 RMK A01 T00561006  RH  064%=      5-min Rain = 0
KEA1 171129Z 00012KT 06/M01 A3012 RMK A01 T00561007  RH  064%=      5-min Rain = 0
KEA1 171130Z 00014KT 06/M01 A3013 RMK A01 T00561006  RH  064%=      5-min Rain = 0
KEA1 171131Z 36015KT 06/M01 A3013 RMK A01 T00561006  RH  064%=      5-min Rain = 0
KEA1 171132Z 01013KT 06/M01 A3013 RMK A01 T00571005  RH  064%=      5-min Rain = 0
KEA1 171133Z 00013KT 06/M01 A3013 RMK A01 T00571006  RH  064%=      5-min Rain = 0
KEA1 171134Z 00014KT 06/M01 A3013 RMK A01 T00561006  RH  065%=      5-min Rain = 0
KEA1 171135Z 00015KT 06/M01 A3013 RMK A01 T00561005  RH  065%=      5-min Rain = 0
KEA1 171136Z 36014KT 06/M01 A3013 RMK A01 T00571005  RH  065%=      5-min Rain = 0
KEA1 171137Z 00013KT 06/M01 A3013 RMK A01 T00571005  RH  064%=      5-min Rain = 0
KEA1 171138Z 00013KT 06/M01 A3013 RMK A01 T00561005  RH  065%=      5-min Rain = 0
KEA1 171139Z 00013KT 06/M01 A3013 RMK A01 T00551005  RH  065%=      5-min Rain = 0
KEA1 171140Z 00014G21KT 06/M01 A3013 RMK A01 T00551005  RH  065%=      5-min Rain = 0
KEA1 171141Z 00014KT 06/M01 A3013 RMK A01 T00551005  RH  065%=      5-min Rain = 0
KEA1 171142Z 00014KT 06/M01 A3013 RMK A01 T00561005  RH  065%=      5-min Rain = 0
KEA1 171143Z 00014KT 06/M01 A3013 RMK A01 T00551005  RH  065%=      5-min Rain = 0
KEA1 171144Z 00013KT 06/M00 A3013 RMK A01 T00561004  RH  065%=      5-min Rain = 0
KEA1 171145Z 36014KT 06/M01 A3014 RMK A01 T00551005  RH  065%=      5-min Rain = 0
KEA1 171146Z 00013KT 05/M00 A3014 RMK A01 T00541004  RH  066%=      5-min Rain = 0
KEA1 171147Z 00014KT 05/M01 A3014 RMK A01 T00541005  RH  066%=      5-min Rain = 0
KEA1 171148Z 01015KT 05/M00 A3014 RMK A01 T00541004  RH  066%=      5-min Rain = 0
KEA1 171149Z 01014KT 05/M00 A3014 RMK A01 T00541004  RH  066%=      5-min Rain = 0
KEA1 171150Z 00015KT 06/M00 A3014 RMK A01 T00551003  RH  066%=      5-min Rain = 0
KEA1 171151Z 01015KT 05/M00 A3014 RMK A01 T00541004  RH  066%=      5-min Rain = 0
KEA1 171152Z 00016KT 06/M00 A3014 RMK A01 T00551003  RH  066%=      5-min Rain = 0
KEA1 171153Z 01016KT 06/M00 A3014 RMK A01 T00561003  RH  066%=      5-min Rain = 0
KEA1 171154Z 00016KT 06/M00 A3014 RMK A01 T00561003  RH  066%=      5-min Rain = 0
KEA1 171155Z 00015KT 06/M00 A3014 RMK A01 T00561003  RH  066%=      5-min Rain = 0
KEA1 171156Z 00016KT 06/M00 A3014 RMK A01 T00561003  RH  066%=      5-min Rain = 0
KEA1 171157Z 36014KT 06/M00 A3014 RMK A01 T00561003  RH  066%=      5-min Rain = 0
KEA1 171158Z 00014KT 06/M00 A3014 RMK A01 T00561003  RH  066%=      5-min Rain = 0
KEA1 171159Z 01014KT 06/M00 A3014 RMK A01 T00561003  RH  066%=      5-min Rain = 0
KEA1 171200Z 00016KT 06/M00 A3014 RMK A01 T00551003  RH  066%=      5-min Rain = 0
KEA1 171201Z 00014KT 06/M00 A3014 RMK A01 T00551003  RH  066%=      5-min Rain = 0
KEA1 171202Z 00014G20KT 06/M00 A3014 RMK A01 T00551002  RH  067%=      5-min Rain = 0
KEA1 171203Z 00014KT 06/M00 A3014 RMK A01 T00551003  RH  067%=      5-min Rain = 0
KEA1 171204Z 00017KT 06/M00 A3014 RMK A01 T00551002  RH  067%=      5-min Rain = 0
KEA1 171205Z 01015KT 05/M00 A3014 RMK A01 T00541002  RH  067%=      5-min Rain = 0
KEA1 171206Z 01015KT 06/M00 A3015 RMK A01 T00551002  RH  067%=      5-min Rain = 0
KEA1 171207Z 01015KT 06/M00 A3015 RMK A01 T00551002  RH  067%=      5-min Rain = 0
KEA1 171208Z 00015KT 05/M00 A3015 RMK A01 T00541002  RH  067%=      5-min Rain = 0
KEA1 171209Z 00014KT 06/M00 A3015 RMK A01 T00551002  RH  067%=      5-min Rain = 0
KEA1 171210Z 00014KT 05/M00 A3015 RMK A01 T00541002  RH  067%=      5-min Rain = 0
KEA1 171211Z 00014KT 05/M00 A3015 RMK A01 T00541002  RH  067%=      5-min Rain = 0
KEA1 171212Z 00014KT 05/M00 A3015 RMK A01 T00531002  RH  067%=      5-min Rain = 0
KEA1 171213Z 36014KT 05/M00 A3015 RMK A01 T00531002  RH  067%=      5-min Rain = 0
KEA1 171214Z 36013KT 05/M00 A3015 RMK A01 T00531002  RH  067%=      5-min Rain = 0
KEA1 171215Z 36013KT 05/M00 A3015 RMK A01 T00521003  RH  068%=      5-min Rain = 0
KEA1 171216Z 36014KT 05/M00 A3015 RMK A01 T00521003  RH  068%=      5-min Rain = 0
KEA1 171217Z 00015KT 05/M00 A3015 RMK A01 T00521002  RH  068%=      5-min Rain = 0
KEA1 171218Z 00013KT 05/M00 A3016 RMK A01 T00531002  RH  068%=      5-min Rain = 0
KEA1 171219Z 00013KT 05/M00 A3016 RMK A01 T00521002  RH  068%=      5-min Rain = 0
KEA1 171220Z 00016G21KT 05/M00 A3015 RMK A01 T00521002  RH  068%=      5-min Rain = 0
KEA1 171221Z 00015KT 05/M00 A3016 RMK A01 T00521002  RH  068%=      5-min Rain = 0
KEA1 171222Z 00015KT 05/M00 A3016 RMK A01 T00531002  RH  068%=      5-min Rain = 0
KEA1 171223Z 00014KT 05/M00 A3016 RMK A01 T00531002  RH  068%=      5-min Rain = 0
KEA1 171224Z 01016G21KT 05/M00 A3016 RMK A01 T00531002  RH  068%=      5-min Rain = 0
KEA1 171225Z 01015KT 05/M00 A3016 RMK A01 T00531002  RH  068%=      5-min Rain = 0
KEA1 171226Z 36014KT 05/M00 A3016 RMK A01 T00531002  RH  068%=      5-min Rain = 0
KEA1 171227Z 00014KT 05/M00 A3016 RMK A01 T00521002  RH  068%=      5-min Rain = 0
KEA1 171228Z 00014KT 05/M00 A3016 RMK A01 T00521002  RH  068%=      5-min Rain = 0
KEA1 171229Z 00013KT 05/M00 A3016 RMK A01 T00511002  RH  068%=      5-min Rain = 0
KEA1 171230Z 00014KT 05/M00 A3016 RMK A01 T00511002  RH  068%=      5-min Rain = 0
KEA1 171231Z 36012KT 05/M00 A3016 RMK A01 T00501003  RH  069%=      5-min Rain = 0
KEA1 171232Z 36012KT 05/M00 A3016 RMK A01 T00491003  RH  069%=      5-min Rain = 0
KEA1 171233Z 36012KT 05/M00 A3016 RMK A01 T00491003  RH  069%=      5-min Rain = 0
KEA1 171234Z 36013KT 05/M00 A3017 RMK A01 T00481003  RH  069%=      5-min Rain = 0
KEA1 171235Z 36014KT 05/M00 A3017 RMK A01 T00481003  RH  069%=      5-min Rain = 0
KEA1 171236Z 00013KT 05/M00 A3017 RMK A01 T00481003  RH  069%=      5-min Rain = 0
KEA1 171237Z 36011KT 05/M00 A3017 RMK A01 T00481003  RH  069%=      5-min Rain = 0
KEA1 171238Z 36012KT 05/M00 A3017 RMK A01 T00471003  RH  070%=      5-min Rain = 0
KEA1 171239Z 00012KT 05/M00 A3017 RMK A01 T00471003  RH  070%=      5-min Rain = 0
KEA1 171240Z 36013KT 05/M00 A3017 RMK A01 T00471003  RH  070%=      5-min Rain = 0
KEA1 171241Z 36013KT 05/M00 A3017 RMK A01 T00471003  RH  070%=      5-min Rain = 0
KEA1 171242Z 00014KT 05/M00 A3017 RMK A01 T00471003  RH  070%=      5-min Rain = 0
KEA1 171243Z 00013KT 05/M00 A3017 RMK A01 T00481002  RH  070%=      5-min Rain = 0
KEA1 171244Z 36012KT 05/M00 A3017 RMK A01 T00471003  RH  070%=      5-min Rain = 0
KEA1 171245Z 00014KT 05/M00 A3017 RMK A01 T00471002  RH  070%=      5-min Rain = 0
KEA1 171246Z 00013KT 05/M00 A3017 RMK A01 T00471002  RH  070%=      5-min Rain = 0
KEA1 171247Z 36011KT 05/M00 A3017 RMK A01 T00461003  RH  071%=      5-min Rain = 0
KEA1 171248Z 00011KT 05/M00 A3018 RMK A01 T00461003  RH  071%=      5-min Rain = 0
KEA1 171249Z 00012KT 05/M00 A3018 RMK A01 T00461002  RH  071%=      5-min Rain = 0
KEA1 171250Z 00011KT 05/M00 A3018 RMK A01 T00451003  RH  071%=      5-min Rain = 0
KEA1 171251Z 00012KT 04/M00 A3018 RMK A01 T00441003  RH  071%=      5-min Rain = 0
KEA1 171252Z 36012KT 04/M00 A3018 RMK A01 T00441003  RH  071%=      5-min Rain = 0
KEA1 171253Z 36012KT 04/M00 A3018 RMK A01 T00441003  RH  071%=      5-min Rain = 0
KEA1 171254Z 36013KT 04/M00 A3018 RMK A01 T00441003  RH  071%=      5-min Rain = 0
KEA1 171255Z 00013KT 04/M00 A3018 RMK A01 T00441003  RH  071%=      5-min Rain = 0
KEA1 171256Z 36011KT 04/M00 A3018 RMK A01 T00441003  RH  071%=      5-min Rain = 0
KEA1 171257Z 00013KT 04/M00 A3018 RMK A01 T00441003  RH  071%=      5-min Rain = 0
KEA1 171258Z 36013KT 04/M00 A3018 RMK A01 T00441003  RH  072%=      5-min Rain = 0
KEA1 171259Z 36015KT 04/M00 A3018 RMK A01 T00441003  RH  071%=      5-min Rain = 0
KEA1 171300Z 36015KT 05/M00 A3018 RMK A01 T00451002  RH  072%=      5-min Rain = 0
KEA1 171301Z 36014KT 05/M00 A3018 RMK A01 T00461002  RH  071%=      5-min Rain = 0
KEA1 171302Z 00013KT 05/M00 A3018 RMK A01 T00461002  RH  071%=      5-min Rain = 0
KEA1 171303Z 36013KT 05/M00 A3018 RMK A01 T00461002  RH  071%=      5-min Rain = 0
KEA1 171304Z 36012KT 05/M00 A3018 RMK A01 T00451002  RH  071%=      5-min Rain = 0
KEA1 171305Z 00012KT 04/M00 A3018 RMK A01 T00441003  RH  072%=      5-min Rain = 0
KEA1 171306Z 36012KT 04/M00 A3018 RMK A01 T00441002  RH  072%=      5-min Rain = 0
KEA1 171307Z 36012KT 04/M00 A3018 RMK A01 T00431002  RH  072%=      5-min Rain = 0
KEA1 171308Z 36012KT 04/M00 A3018 RMK A01 T00431003  RH  072%=      5-min Rain = 0
KEA1 171309Z 36012KT 04/M00 A3018 RMK A01 T00421003  RH  073%=      5-min Rain = 0
KEA1 171310Z 36011KT 04/M00 A3018 RMK A01 T00421003  RH  073%=      5-min Rain = 0
KEA1 171311Z 35012KT 04/M00 A3018 RMK A01 T00411002  RH  073%=      5-min Rain = 0
KEA1 171312Z 35012KT 04/M00 A3018 RMK A01 T00411002  RH  073%=      5-min Rain = 0
KEA1 171313Z 36012KT 04/M00 A3018 RMK A01 T00421002  RH  073%=      5-min Rain = 0
KEA1 171314Z 35013KT 04/M00 A3018 RMK A01 T00421001  RH  073%=      5-min Rain = 0
KEA1 171315Z 36012KT 04/00 A3018 RMK A01 T004300-0  RH  073%=      5-min Rain = 0
KEA1 171316Z 00012KT 04/M00 A3018 RMK A01 T00441001  RH  073%=      5-min Rain = 0
KEA1 171317Z 36013KT 04/00 A3018 RMK A01 T004400-0  RH  073%=      5-min Rain = 0
KEA1 171318Z 36012KT 04/00 A3019 RMK A01 T00440000  RH  073%=      5-min Rain = 0
KEA1 171319Z 36012KT 04/00 A3019 RMK A01 T004400-0  RH  073%=      5-min Rain = 0
KEA1 171320Z 01012KT 04/00 A3019 RMK A01 T00440000  RH  073%=      5-min Rain = 0
KEA1 171321Z 00011KT 04/00 A3019 RMK A01 T00440000  RH  073%=      5-min Rain = 0
KEA1 171322Z 36011KT 04/00 A3019 RMK A01 T00430000  RH  074%=      5-min Rain = 0
KEA1 171323Z 00014KT 04/00 A3019 RMK A01 T00430001  RH  074%=      5-min Rain = 0
KEA1 171324Z 01013KT 04/00 A3019 RMK A01 T00430001  RH  074%=      5-min Rain = 0
KEA1 171325Z 36012KT 04/00 A3019 RMK A01 T00440001  RH  074%=      5-min Rain = 0
KEA1 171326Z 00012KT 04/00 A3019 RMK A01 T00440001  RH  074%=      5-min Rain = 0
KEA1 171327Z 00013KT 04/00 A3019 RMK A01 T00440002  RH  074%=      5-min Rain = 0
KEA1 171328Z 00012KT 04/00 A3019 RMK A01 T00440002  RH  074%=      5-min Rain = 0
KEA1 171329Z 00011KT 04/00 A302 RMK A01 T00440002  RH  074%=      5-min Rain = 0
KEA1 171330Z 36010KT 04/00 A302 RMK A01 T00430001  RH  074%=      5-min Rain = 0
KEA1 171331Z 36011KT 04/00 A302 RMK A01 T00430001  RH  074%=      5-min Rain = 0
KEA1 171332Z 00012KT 04/00 A302 RMK A01 T00420001  RH  075%=      5-min Rain = 0
KEA1 171333Z 00012KT 04/00 A302 RMK A01 T00420002  RH  075%=      5-min Rain = 0
KEA1 171334Z 36012KT 04/00 A302 RMK A01 T00430002  RH  075%=      5-min Rain = 0
KEA1 171335Z 36011KT 04/00 A302 RMK A01 T00430002  RH  075%=      5-min Rain = 0
KEA1 171336Z 00013KT 04/00 A302 RMK A01 T00430002  RH  075%=      5-min Rain = 0
KEA1 171337Z 36012KT 04/00 A302 RMK A01 T00440003  RH  075%=      5-min Rain = 0
KEA1 171338Z 35012KT 04/00 A302 RMK A01 T00440003  RH  075%=      5-min Rain = 0
KEA1 171339Z 00012KT 04/00 A302 RMK A01 T00440003  RH  075%=      5-min Rain = 0
KEA1 171340Z 00010KT 04/00 A302 RMK A01 T00440003  RH  075%=      5-min Rain = 0
KEA1 171341Z 36011KT 04/00 A302 RMK A01 T00440002  RH  074%=      5-min Rain = 0
KEA1 171342Z 36011KT 04/00 A302 RMK A01 T00430002  RH  075%=      5-min Rain = 0
KEA1 171343Z 36012KT 04/00 A302 RMK A01 T00430003  RH  075%=      5-min Rain = 0
KEA1 171344Z 36012KT 04/00 A302 RMK A01 T00440004  RH  075%=      5-min Rain = 0
KEA1 171345Z 36010KT 05/00 A302 RMK A01 T00450004  RH  075%=      5-min Rain = 0
KEA1 171346Z 00012KT 05/00 A302 RMK A01 T00450004  RH  074%=      5-min Rain = 0
KEA1 171347Z 35012KT 05/00 A302 RMK A01 T00450003  RH  074%=      5-min Rain = 0
KEA1 171348Z 36013KT 05/00 A302 RMK A01 T00450004  RH  074%=      5-min Rain = 0
KEA1 171349Z 36013KT 05/00 A302 RMK A01 T00460004  RH  074%=      5-min Rain = 0
KEA1 171350Z 36011KT 05/00 A302 RMK A01 T00460004  RH  074%=      5-min Rain = 0
KEA1 171351Z 35010KT 05/00 A302 RMK A01 T00460004  RH  074%=      5-min Rain = 0
KEA1 171352Z 36010KT 05/00 A302 RMK A01 T00460004  RH  074%=      5-min Rain = 0
KEA1 171353Z 36010KT 05/00 A302 RMK A01 T00460004  RH  074%=      5-min Rain = 0
KEA1 171354Z 35012KT 05/00 A3021 RMK A01 T00450004  RH  075%=      5-min Rain = 0
KEA1 171355Z 35011KT 05/00 A302 RMK A01 T00460004  RH  075%=      5-min Rain = 0
KEA1 171356Z 35009KT 05/01 A3021 RMK A01 T00460005  RH  075%=      5-min Rain = 0
KEA1 171357Z 35011KT 05/01 A3021 RMK A01 T00460005  RH  074%=      5-min Rain = 0
KEA1 171358Z 35010KT 05/01 A3021 RMK A01 T00460005  RH  074%=      5-min Rain = 0
KEA1 171359Z 36010KT 05/00 A3021 RMK A01 T00460004  RH  074%=      5-min Rain = 0
KEA1 171400Z 36009KT 05/01 A3021 RMK A01 T00470005  RH  074%=      5-min Rain = 0
KEA1 171401Z 36010KT 05/01 A3021 RMK A01 T00470005  RH  074%=      5-min Rain = 0
KEA1 171402Z 00010KT 05/01 A3021 RMK A01 T00480006  RH  074%=      5-min Rain = 0
KEA1 171403Z 36009KT 05/01 A3021 RMK A01 T00490007  RH  074%=      5-min Rain = 0
KEA1 171404Z 00011KT 05/01 A3021 RMK A01 T00490006  RH  074%=      5-min Rain = 0
KEA1 171405Z 00012KT 05/01 A3021 RMK A01 T00500007  RH  074%=      5-min Rain = 0
KEA1 171406Z 00011KT 05/01 A3021 RMK A01 T00510007  RH  074%=      5-min Rain = 0
KEA1 171407Z 00010KT 05/01 A3021 RMK A01 T00510008  RH  073%=      5-min Rain = 0
KEA1 171408Z 00011KT 05/01 A3021 RMK A01 T00520008  RH  073%=      5-min Rain = 0
KEA1 171409Z 00011KT 05/01 A3021 RMK A01 T00530008  RH  073%=      5-min Rain = 0
KEA1 171410Z 01012KT 05/01 A3021 RMK A01 T00530008  RH  073%=      5-min Rain = 0
KEA1 171411Z 00011KT 05/01 A3021 RMK A01 T00540008  RH  073%=      5-min Rain = 0
KEA1 171412Z 01011KT 05/01 A3021 RMK A01 T00540008  RH  072%=      5-min Rain = 0
KEA1 171413Z 00010KT 05/01 A3021 RMK A01 T00540008  RH  072%=      5-min Rain = 0
KEA1 171414Z 01012KT 06/01 A3021 RMK A01 T00550009  RH  072%=      5-min Rain = 0
KEA1 171415Z 00011KT 06/01 A3021 RMK A01 T00560009  RH  072%=      5-min Rain = 0
KEA1 171416Z 01011KT 06/01 A3022 RMK A01 T00560009  RH  072%=      5-min Rain = 0
KEA1 171417Z 01013KT 06/01 A3022 RMK A01 T00560009  RH  072%=      5-min Rain = 0
KEA1 171418Z 01011KT 06/01 A3022 RMK A01 T00570009  RH  071%=      5-min Rain = 0
KEA1 171419Z 01011KT 06/01 A3022 RMK A01 T00570009  RH  071%=      5-min Rain = 0
KEA1 171420Z 01013KT 06/01 A3021 RMK A01 T00570009  RH  071%=      5-min Rain = 0
KEA1 171421Z 01012KT 06/01 A3022 RMK A01 T00580010  RH  071%=      5-min Rain = 0
KEA1 171422Z 00012KT 06/01 A3022 RMK A01 T00580010  RH  071%=      5-min Rain = 0
KEA1 171423Z 01014KT 06/01 A3021 RMK A01 T00590010  RH  071%=      5-min Rain = 0
KEA1 171424Z 01013KT 06/01 A3021 RMK A01 T00590009  RH  071%=      5-min Rain = 0
KEA1 171425Z 01012KT 06/01 A3022 RMK A01 T00590009  RH  070%=      5-min Rain = 0
KEA1 171426Z 01012KT 06/01 A3022 RMK A01 T00600010  RH  070%=      5-min Rain = 0
KEA1 171427Z 00015KT 06/01 A3022 RMK A01 T00600010  RH  070%=      5-min Rain = 0
KEA1 171428Z 01017KT 06/01 A3022 RMK A01 T00600010  RH  070%=      5-min Rain = 0
KEA1 171429Z 01015KT 06/01 A3022 RMK A01 T00600010  RH  070%=      5-min Rain = 0
KEA1 171430Z 01013KT 06/01 A3022 RMK A01 T00600010  RH  070%=      5-min Rain = 0
KEA1 171431Z 01012KT 06/01 A3022 RMK A01 T00610010  RH  070%=      5-min Rain = 0
KEA1 171432Z 01012KT 06/01 A3022 RMK A01 T00610011  RH  070%=      5-min Rain = 0
KEA1 171433Z 00014KT 06/01 A3022 RMK A01 T00620011  RH  069%=      5-min Rain = 0
KEA1 171434Z 01011KT 06/01 A3022 RMK A01 T00620010  RH  069%=      5-min Rain = 0
KEA1 171435Z 01013KT 06/01 A3022 RMK A01 T00630011  RH  069%=      5-min Rain = 0
KEA1 171436Z 01014KT 06/01 A3022 RMK A01 T00640011  RH  069%=      5-min Rain = 0
KEA1 171437Z 01011KT 06/01 A3022 RMK A01 T00630011  RH  069%=      5-min Rain = 0
KEA1 171438Z 01014KT 06/01 A3022 RMK A01 T00640011  RH  069%=      5-min Rain = 0
KEA1 171439Z 01014KT 06/01 A3022 RMK A01 T00640011  RH  069%=      5-min Rain = 0
KEA1 171440Z 01015KT 06/01 A3022 RMK A01 T00640011  RH  069%=      5-min Rain = 0
KEA1 171441Z 01012KT 06/01 A3022 RMK A01 T00640011  RH  069%=      5-min Rain = 0
KEA1 171442Z 01013KT 07/01 A3022 RMK A01 T00650011  RH  069%=      5-min Rain = 0
KEA1 171443Z 01013KT 07/01 A3022 RMK A01 T00650011  RH  068%=      5-min Rain = 0
KEA1 171444Z 02015KT 07/01 A3022 RMK A01 T00660011  RH  068%=      5-min Rain = 0
KEA1 171445Z 01013KT 07/01 A3022 RMK A01 T00660011  RH  068%=      5-min Rain = 0
KEA1 171446Z 01016KT 07/01 A3022 RMK A01 T00660011  RH  068%=      5-min Rain = 0
KEA1 171447Z 01014KT 07/01 A3023 RMK A01 T00660011  RH  068%=      5-min Rain = 0
KEA1 171448Z 01016KT 07/01 A3022 RMK A01 T00660011  RH  068%=      5-min Rain = 0
KEA1 171449Z 01011KT 07/01 A3023 RMK A01 T00670012  RH  068%=      5-min Rain = 0
KEA1 171450Z 00014KT 07/01 A3023 RMK A01 T00670012  RH  068%=      5-min Rain = 0
KEA1 171451Z 01011KT 07/01 A3023 RMK A01 T00680012  RH  067%=      5-min Rain = 0
KEA1 171452Z 01012KT 07/01 A3023 RMK A01 T00680012  RH  067%=      5-min Rain = 0
KEA1 171453Z 01015KT 07/01 A3023 RMK A01 T00700013  RH  067%=      5-min Rain = 0
KEA1 171454Z 01016KT 07/01 A3023 RMK A01 T00700012  RH  067%=      5-min Rain = 0
KEA1 171455Z 01014KT 07/01 A3023 RMK A01 T00690011  RH  067%=      5-min Rain = 0
KEA1 171456Z 01013KT 07/01 A3023 RMK A01 T00680012  RH  067%=      5-min Rain = 0
KEA1 171457Z 01012KT 07/01 A3023 RMK A01 T00700014  RH  067%=      5-min Rain = 0
KEA1 171458Z 00017KT 07/01 A3023 RMK A01 T00710013  RH  066%=      5-min Rain = 0
KEA1 171459Z 01014KT 07/01 A3023 RMK A01 T00700012  RH  066%=      5-min Rain = 0
KEA1 171500Z 01014KT 07/01 A3023 RMK A01 T00700013  RH  067%=      5-min Rain = 0
KEA1 171501Z 01014KT 07/01 A3023 RMK A01 T00700012  RH  067%=      5-min Rain = 0
KEA1 171502Z 01016KT 07/01 A3023 RMK A01 T00710013  RH  066%=      5-min Rain = 0
KEA1 171503Z 01016KT 07/01 A3023 RMK A01 T00710012  RH  066%=      5-min Rain = 0
KEA1 171504Z 01015KT 07/01 A3023 RMK A01 T00710012  RH  066%=      5-min Rain = 0
KEA1 171505Z 01013KT 07/01 A3023 RMK A01 T00700013  RH  067%=      5-min Rain = 0
KEA1 171506Z 01013KT 07/01 A3023 RMK A01 T00710013  RH  067%=      5-min Rain = 0
KEA1 171507Z 01013KT 07/01 A3023 RMK A01 T00720014  RH  066%=      5-min Rain = 0
KEA1 171508Z 01015KT 07/01 A3023 RMK A01 T00730014  RH  066%=      5-min Rain = 0
KEA1 171509Z 01015KT 07/01 A3023 RMK A01 T00730014  RH  066%=      5-min Rain = 0
KEA1 171510Z 01016KT 07/01 A3023 RMK A01 T00730013  RH  066%=      5-min Rain = 0
KEA1 171511Z 36016KT 07/01 A3023 RMK A01 T00740013  RH  066%=      5-min Rain = 0
KEA1 171512Z 01015KT 07/01 A3023 RMK A01 T00730013  RH  066%=      5-min Rain = 0
KEA1 171513Z 01014G20KT 07/01 A3023 RMK A01 T00730014  RH  066%=      5-min Rain = 0
KEA1 171514Z 01014KT 07/01 A3023 RMK A01 T00740014  RH  066%=      5-min Rain = 0
KEA1 171515Z 02014KT 08/02 A3023 RMK A01 T00750015  RH  065%=      5-min Rain = 0
KEA1 171516Z 01014KT 08/02 A3023 RMK A01 T00760015  RH  065%=      5-min Rain = 0
KEA1 171517Z 00017KT 08/02 A3023 RMK A01 T00770015  RH  065%=      5-min Rain = 0
KEA1 171518Z 01017KT 08/01 A3023 RMK A01 T00760014  RH  065%=      5-min Rain = 0
KEA1 171519Z 01015KT 08/01 A3023 RMK A01 T00750014  RH  065%=      5-min Rain = 0
KEA1 171520Z 02016KT 08/01 A3023 RMK A01 T00760014  RH  065%=      5-min Rain = 0
KEA1 171521Z 01012KT 08/01 A3023 RMK A01 T00760014  RH  065%=      5-min Rain = 0
KEA1 171522Z 01015G20KT 08/02 A3023 RMK A01 T00780016  RH  065%=      5-min Rain = 0
KEA1 171523Z 01017KT 08/01 A3023 RMK A01 T00780014  RH  064%=      5-min Rain = 0
KEA1 171524Z 00015KT 08/01 A3023 RMK A01 T00770014  RH  065%=      5-min Rain = 0
KEA1 171525Z 01016KT 08/01 A3023 RMK A01 T00770014  RH  065%=      5-min Rain = 0
KEA1 171526Z 02017KT 08/01 A3023 RMK A01 T00770014  RH  064%=      5-min Rain = 0
KEA1 171527Z 01015KT 08/02 A3023 RMK A01 T00780015  RH  064%=      5-min Rain = 0
KEA1 171528Z 02016KT 08/02 A3023 RMK A01 T00780015  RH  064%=      5-min Rain = 0
KEA1 171529Z 01012KT 08/02 A3023 RMK A01 T00780016  RH  065%=      5-min Rain = 0
KEA1 171530Z 01011KT 08/02 A3023 RMK A01 T00810018  RH  064%=      5-min Rain = 0
KEA1 171531Z 01015G20KT 08/02 A3023 RMK A01 T00830016  RH  063%=      5-min Rain = 0
KEA1 171532Z 02017KT 08/02 A3023 RMK A01 T00820015  RH  063%=      5-min Rain = 0
KEA1 171533Z 01015KT 08/01 A3023 RMK A01 T00810014  RH  063%=      5-min Rain = 0
KEA1 171534Z 01018KT 08/02 A3023 RMK A01 T00810015  RH  063%=      5-min Rain = 0
KEA1 171535Z 02016KT 08/01 A3023 RMK A01 T00800014  RH  063%=      5-min Rain = 0
KEA1 171536Z 02016KT 08/02 A3023 RMK A01 T00800015  RH  063%=      5-min Rain = 0
KEA1 171537Z 02017KT 08/02 A3023 RMK A01 T00800016  RH  064%=      5-min Rain = 0
KEA1 171538Z 01018KT 08/02 A3023 RMK A01 T00810015  RH  063%=      5-min Rain = 0
KEA1 171539Z 01013KT 08/02 A3023 RMK A01 T00810015  RH  063%=      5-min Rain = 0
KEA1 171540Z 02015KT 08/02 A3023 RMK A01 T00810016  RH  063%=      5-min Rain = 0
KEA1 171541Z 03014KT 08/02 A3023 RMK A01 T00820016  RH  063%=      5-min Rain = 0
KEA1 171542Z 02014KT 08/02 A3023 RMK A01 T00830016  RH  062%=      5-min Rain = 0
KEA1 171543Z 02015KT 08/02 A3023 RMK A01 T00820015  RH  063%=      5-min Rain = 0
KEA1 171544Z 01014G19KT 08/02 A3023 RMK A01 T00820016  RH  063%=      5-min Rain = 0
KEA1 171545Z 02014G19KT 09/02 A3023 RMK A01 T00850018  RH  063%=      5-min Rain = 0
KEA1 171546Z 02015KT 09/02 A3023 RMK A01 T00860016  RH  061%=      5-min Rain = 0
KEA1 171547Z 02014KT 09/02 A3023 RMK A01 T00860016  RH  061%=      5-min Rain = 0
KEA1 171548Z 02015KT 09/02 A3023 RMK A01 T00850015  RH  061%=      5-min Rain = 0
KEA1 171549Z 03014KT 08/02 A3023 RMK A01 T00840015  RH  062%=      5-min Rain = 0
KEA1 171550Z 03013KT 08/02 A3023 RMK A01 T00840015  RH  062%=      5-min Rain = 0
KEA1 171551Z 01014KT 09/02 A3023 RMK A01 T00860017  RH  062%=      5-min Rain = 0
KEA1 171552Z 01015KT 09/02 A3023 RMK A01 T00870017  RH  061%=      5-min Rain = 0
KEA1 171553Z 01015KT 09/02 A3023 RMK A01 T00880016  RH  061%=      5-min Rain = 0
KEA1 171554Z 02016KT 09/02 A3023 RMK A01 T00870016  RH  061%=      5-min Rain = 0
KEA1 171555Z 03016KT 09/02 A3023 RMK A01 T00860016  RH  061%=      5-min Rain = 0
KEA1 171556Z 02014KT 09/02 A3023 RMK A01 T00850016  RH  062%=      5-min Rain = 0
KEA1 171557Z 03013KT 09/02 A3023 RMK A01 T00860017  RH  062%=      5-min Rain = 0
KEA1 171558Z 02014KT 09/02 A3023 RMK A01 T00890018  RH  061%=      5-min Rain = 0
KEA1 171559Z 02013KT 09/02 A3023 RMK A01 T00890017  RH  060%=      5-min Rain = 0
KEA1 171600Z 01014KT 09/02 A3023 RMK A01 T00890017  RH  061%=      5-min Rain = 0
KEA1 171601Z 01017KT 09/02 A3023 RMK A01 T00890017  RH  060%=      5-min Rain = 0
KEA1 171602Z 02015KT 09/02 A3023 RMK A01 T00900016  RH  060%=      5-min Rain = 0
KEA1 171603Z 03015KT 09/02 A3023 RMK A01 T00890016  RH  060%=      5-min Rain = 0
KEA1 171604Z 03014KT 09/02 A3023 RMK A01 T00880016  RH  060%=      5-min Rain = 0
KEA1 171605Z 03013KT 09/02 A3023 RMK A01 T00890017  RH  061%=      5-min Rain = 0
KEA1 171606Z 01013KT 09/02 A3023 RMK A01 T00890018  RH  061%=      5-min Rain = 0
KEA1 171607Z 01013KT 09/02 A3023 RMK A01 T00920019  RH  060%=      5-min Rain = 0
KEA1 171608Z 00016KT 09/02 A3023 RMK A01 T00930018  RH  060%=      5-min Rain = 0
KEA1 171609Z 01016KT 09/02 A3023 RMK A01 T00910016  RH  059%=      5-min Rain = 0
KEA1 171610Z 01014KT 09/02 A3023 RMK A01 T00900017  RH  060%=      5-min Rain = 0
KEA1 171611Z 02014KT 09/02 A3023 RMK A01 T00900017  RH  060%=      5-min Rain = 0
KEA1 171612Z 02012KT 09/02 A3023 RMK A01 T00910017  RH  060%=      5-min Rain = 0
KEA1 171613Z 01012KT 09/02 A3023 RMK A01 T00920019  RH  060%=      5-min Rain = 0
KEA1 171614Z 03014KT 10/02 A3023 RMK A01 T00950019  RH  059%=      5-min Rain = 0
KEA1 171615Z 03015KT 10/02 A3023 RMK A01 T00950018  RH  059%=      5-min Rain = 0
KEA1 171616Z 03014KT 09/02 A3023 RMK A01 T00930017  RH  059%=      5-min Rain = 0
KEA1 171617Z 02011KT 09/02 A3023 RMK A01 T00920019  RH  060%=      5-min Rain = 0
KEA1 171618Z 01013KT 10/02 A3023 RMK A01 T00960021  RH  059%=      5-min Rain = 0
KEA1 171619Z 01013KT 10/02 A3023 RMK A01 T00970020  RH  058%=      5-min Rain = 0
KEA1 171620Z 02016KT 10/02 A3023 RMK A01 T00980019  RH  058%=      5-min Rain = 0
KEA1 171621Z 02012KT 10/02 A3023 RMK A01 T00970018  RH  058%=      5-min Rain = 0
KEA1 171622Z 01012KT 10/02 A3023 RMK A01 T00950018  RH  059%=      5-min Rain = 0
KEA1 171623Z 02012KT 10/02 A3023 RMK A01 T00960019  RH  059%=      5-min Rain = 0
KEA1 171624Z 02014KT 10/02 A3023 RMK A01 T00980020  RH  058%=      5-min Rain = 0
KEA1 171625Z 03014KT 10/02 A3023 RMK A01 T00980018  RH  058%=      5-min Rain = 0
KEA1 171626Z 03012KT 10/02 A3023 RMK A01 T00960018  RH  058%=      5-min Rain = 0
KEA1 171627Z 02013KT 10/02 A3023 RMK A01 T00980019  RH  058%=      5-min Rain = 0
KEA1 171628Z 02010KT 10/02 A3023 RMK A01 T00990019  RH  058%=      5-min Rain = 0
KEA1 171629Z 01015KT 10/02 A3023 RMK A01 T01000020  RH  057%=      5-min Rain = 0
KEA1 171630Z 02015KT 10/02 A3023 RMK A01 T01000018  RH  057%=      5-min Rain = 0
KEA1 171631Z 03012KT 10/02 A3023 RMK A01 T00970017  RH  058%=      5-min Rain = 0
KEA1 171632Z 03012KT 10/02 A3023 RMK A01 T00970018  RH  058%=      5-min Rain = 0
KEA1 171633Z 03013KT 10/02 A3023 RMK A01 T00980020  RH  058%=      5-min Rain = 0
KEA1 171634Z 02013KT 10/02 A3022 RMK A01 T00990019  RH  058%=      5-min Rain = 0
KEA1 171635Z 02014KT 10/02 A3022 RMK A01 T01020021  RH  057%=      5-min Rain = 0
KEA1 171636Z 02011KT 10/02 A3022 RMK A01 T01030020  RH  056%=      5-min Rain = 0
KEA1 171637Z 02015KT 10/02 A3022 RMK A01 T01020020  RH  056%=      5-min Rain = 0
KEA1 171638Z 02011KT 10/02 A3022 RMK A01 T01000018  RH  057%=      5-min Rain = 0
KEA1 171639Z 02013KT 10/02 A3022 RMK A01 T01010020  RH  057%=      5-min Rain = 0
KEA1 171640Z 03015KT 10/02 A3022 RMK A01 T01010019  RH  057%=      5-min Rain = 0
KEA1 171641Z 03016KT 10/02 A3022 RMK A01 T01000019  RH  057%=      5-min Rain = 0
KEA1 171642Z 02012KT 10/02 A3022 RMK A01 T00980018  RH  057%=      5-min Rain = 0
KEA1 171643Z 02011KT 10/02 A3022 RMK A01 T00970018  RH  058%=      5-min Rain = 0
KEA1 171644Z 02013KT 10/02 A3022 RMK A01 T01000020  RH  058%=      5-min Rain = 0
KEA1 171645Z 01014KT 10/02 A3022 RMK A01 T01020021  RH  057%=      5-min Rain = 0
KEA1 171646Z 01013KT 10/02 A3022 RMK A01 T01020020  RH  056%=      5-min Rain = 0
KEA1 171647Z 02011KT 10/02 A3023 RMK A01 T01020019  RH  056%=      5-min Rain = 0
KEA1 171648Z 02010KT 10/02 A3023 RMK A01 T01020019  RH  057%=      5-min Rain = 0
KEA1 171649Z 03011KT 10/02 A3022 RMK A01 T01010019  RH  057%=      5-min Rain = 0
KEA1 171650Z 02012KT 10/02 A3022 RMK A01 T00990019  RH  057%=      5-min Rain = 0
KEA1 171651Z 02012KT 10/02 A3022 RMK A01 T01010020  RH  057%=      5-min Rain = 0
KEA1 171652Z 01012KT 10/02 A3022 RMK A01 T01020019  RH  056%=      5-min Rain = 0
KEA1 171653Z 00010KT 10/02 A3023 RMK A01 T01030021  RH  057%=      5-min Rain = 0
KEA1 171654Z 02011KT 11/02 A3022 RMK A01 T01050021  RH  056%=      5-min Rain = 0
KEA1 171655Z 01011KT 11/02 A3022 RMK A01 T01060021  RH  055%=      5-min Rain = 0
KEA1 171656Z 01012KT 11/02 A3022 RMK A01 T01070021  RH  055%=      5-min Rain = 0
KEA1 171657Z 01010KT 11/02 A3022 RMK A01 T01050021  RH  056%=      5-min Rain = 0
KEA1 171658Z 01012KT 11/02 A3022 RMK A01 T01060022  RH  056%=      5-min Rain = 0
KEA1 171659Z 01012KT 11/02 A3022 RMK A01 T01100022  RH  055%=      5-min Rain = 0
KEA1 171700Z 36011KT 11/02 A3022 RMK A01 T01100020  RH  054%=      5-min Rain = 0
KEA1 171701Z 00011KT 11/02 A3022 RMK A01 T01060019  RH  055%=      5-min Rain = 0
KEA1 171702Z 01009KT 11/02 A3023 RMK A01 T01070020  RH  055%=      5-min Rain = 0
KEA1 171703Z 01009KT 11/02 A3023 RMK A01 T01060021  RH  055%=      5-min Rain = 0
KEA1 171704Z 00013KT 11/02 A3023 RMK A01 T01090022  RH  055%=      5-min Rain = 0
KEA1 171705Z 00010KT 11/02 A3023 RMK A01 T01090020  RH  054%=      5-min Rain = 0
KEA1 171706Z 03010KT 11/02 A3023 RMK A01 T01080020  RH  055%=      5-min Rain = 0
KEA1 171707Z 03010KT 11/02 A3023 RMK A01 T01070020  RH  055%=      5-min Rain = 0
KEA1 171708Z 03009KT 11/02 A3023 RMK A01 T01070021  RH  055%=      5-min Rain = 0
KEA1 171709Z 02010KT 11/02 A3023 RMK A01 T01090021  RH  055%=      5-min Rain = 0
KEA1 171710Z 03010KT 11/02 A3023 RMK A01 T01070020  RH  055%=      5-min Rain = 0
KEA1 171711Z 36009KT 11/02 A3023 RMK A01 T01060020  RH  055%=      5-min Rain = 0
KEA1 171712Z 35009KT 11/02 A3023 RMK A01 T01060019  RH  055%=      5-min Rain = 0
KEA1 171713Z 02009KT 11/02 A3023 RMK A01 T01060020  RH  055%=      5-min Rain = 0
KEA1 171714Z 02008KT 11/02 A3023 RMK A01 T01060020  RH  055%=      5-min Rain = 0
KEA1 171715Z 02006KT 11/02 A3022 RMK A01 T01060020  RH  055%=      5-min Rain = 0
KEA1 171716Z 36009KT 11/02 A3022 RMK A01 T01070021  RH  055%=      5-min Rain = 0
KEA1 171717Z 01010KT 11/02 A3022 RMK A01 T01110023  RH  055%=      5-min Rain = 0
KEA1 171718Z 02011KT 11/02 A3022 RMK A01 T01140022  RH  053%=      5-min Rain = 0
KEA1 171719Z 02010KT 11/02 A3022 RMK A01 T01130021  RH  053%=      5-min Rain = 0
KEA1 171720Z 02011KT 11/02 A3022 RMK A01 T01100019  RH  053%=      5-min Rain = 0
KEA1 171721Z 02012KT 11/02 A3022 RMK A01 T01090019  RH  054%=      5-min Rain = 0
KEA1 171722Z 02011KT 11/02 A3022 RMK A01 T01100020  RH  054%=      5-min Rain = 0
KEA1 171723Z 02009KT 11/02 A3022 RMK A01 T01120020  RH  053%=      5-min Rain = 0
KEA1 171724Z 02010KT 11/02 A3022 RMK A01 T01120020  RH  053%=      5-min Rain = 0
KEA1 171725Z 02011KT 11/02 A3022 RMK A01 T01130022  RH  054%=      5-min Rain = 0
KEA1 171726Z 36009KT 12/02 A3022 RMK A01 T01160024  RH  053%=      5-min Rain = 0
KEA1 171727Z 36006KT 12/02 A3022 RMK A01 T01170022  RH  052%=      5-min Rain = 0
KEA1 171728Z 35005KT 11/02 A3022 RMK A01 T01140021  RH  053%=      5-min Rain = 0
KEA1 171729Z 35006KT 11/02 A3022 RMK A01 T01130022  RH  053%=      5-min Rain = 0
KEA1 171730Z 02007G13KT 11/02 A3022 RMK A01 T01130022  RH  053%=      5-min Rain = 0
KEA1 171731Z 02011KT 12/02 A3022 RMK A01 T01150022  RH  053%=      5-min Rain = 0
KEA1 171732Z 02008KT 12/02 A3022 RMK A01 T01160021  RH  052%=      5-min Rain = 0
KEA1 171733Z 03010KT 11/02 A3022 RMK A01 T01140020  RH  053%=      5-min Rain = 0
KEA1 171734Z 04008KT 11/02 A3022 RMK A01 T01140021  RH  053%=      5-min Rain = 0
KEA1 171735Z 04008KT 11/02 A3022 RMK A01 T01140022  RH  053%=      5-min Rain = 0
KEA1 171736Z 04008KT 11/02 A3022 RMK A01 T01110019  RH  053%=      5-min Rain = 0
KEA1 171737Z 03006KT 11/02 A3021 RMK A01 T01080019  RH  054%=      5-min Rain = 0
KEA1 171738Z 02008KT 11/02 A3021 RMK A01 T01090022  RH  055%=      5-min Rain = 0
KEA1 171739Z 03010KT 12/02 A3021 RMK A01 T01150022  RH  053%=      5-min Rain = 0
KEA1 171740Z 02008KT 12/02 A3021 RMK A01 T01150020  RH  052%=      5-min Rain = 0
KEA1 171741Z 01008KT 12/02 A3021 RMK A01 T01180023  RH  052%=      5-min Rain = 0
KEA1 171742Z 35009KT 12/02 A3021 RMK A01 T01170021  RH  052%=      5-min Rain = 0
KEA1 171743Z 33007KT 11/02 A3021 RMK A01 T01140020  RH  053%=      5-min Rain = 0
KEA1 171744Z 34009KT 11/02 A3021 RMK A01 T01130021  RH  053%=      5-min Rain = 0
KEA1 171745Z 02008KT 11/02 A3021 RMK A01 T01120021  RH  053%=      5-min Rain = 0
KEA1 171746Z 02009KT 12/02 A3021 RMK A01 T01150021  RH  053%=      5-min Rain = 0
KEA1 171747Z 03007KT 12/02 A3021 RMK A01 T01170022  RH  052%=      5-min Rain = 0
KEA1 171748Z 01007KT 12/02 A3021 RMK A01 T01180021  RH  051%=      5-min Rain = 0
KEA1 171749Z 35007KT 12/02 A3021 RMK A01 T01180021  RH  052%=      5-min Rain = 0
KEA1 171750Z 33006KT 12/02 A3021 RMK A01 T01170021  RH  052%=      5-min Rain = 0
KEA1 171751Z 34006KT 12/02 A3021 RMK A01 T01190023  RH  052%=      5-min Rain = 0
KEA1 171752Z 35007KT 12/02 A3021 RMK A01 T01200022  RH  051%=      5-min Rain = 0
KEA1 171753Z 35006KT 12/02 A3021 RMK A01 T01180020  RH  051%=      5-min Rain = 0
KEA1 171754Z 03008KT 12/02 A3021 RMK A01 T01150021  RH  052%=      5-min Rain = 0
KEA1 171755Z 04006KT 12/02 A3021 RMK A01 T01160022  RH  052%=      5-min Rain = 0
KEA1 171756Z 02009KT 12/02 A302 RMK A01 T01170022  RH  052%=      5-min Rain = 0
KEA1 171757Z 02009KT 12/02 A302 RMK A01 T01170021  RH  052%=      5-min Rain = 0
KEA1 171758Z 02009G14KT 12/02 A302 RMK A01 T01170021  RH  052%=      5-min Rain = 0
KEA1 171759Z 01011KT 12/02 A302 RMK A01 T01200023  RH  051%=      5-min Rain = 0
KEA1 171800Z 00010KT 12/02 A302 RMK A01 T01220022  RH  051%=      5-min Rain = 0
KEA1 171801Z 01008KT 12/02 A302 RMK A01 T01230022  RH  050%=      5-min Rain = 0
KEA1 171802Z 02007KT 12/02 A302 RMK A01 T01220021  RH  050%=      5-min Rain = 0
KEA1 171803Z 02006KT 12/02 A302 RMK A01 T01230022  RH  050%=      5-min Rain = 0
KEA1 171804Z 01007KT 12/02 A302 RMK A01 T01230021  RH  050%=      5-min Rain = 0
KEA1 171805Z 03011KT 12/02 A302 RMK A01 T01220022  RH  050%=      5-min Rain = 0
KEA1 171806Z 01009KT 12/02 A302 RMK A01 T01230021  RH  050%=      5-min Rain = 0
KEA1 171807Z 03008KT 12/02 A302 RMK A01 T01220020  RH  050%=      5-min Rain = 0
KEA1 171808Z 01006KT 12/02 A302 RMK A01 T01210020  RH  050%=      5-min Rain = 0
KEA1 171809Z 35008KT 12/02 A302 RMK A01 T01220021  RH  050%=      5-min Rain = 0
KEA1 171810Z 35008KT 12/02 A302 RMK A01 T01230021  RH  050%=      5-min Rain = 0
KEA1 171811Z 00005KT 12/02 A302 RMK A01 T01220021  RH  050%=      5-min Rain = 0
KEA1 171812Z 01008KT 12/02 A302 RMK A01 T01230022  RH  050%=      5-min Rain = 0
KEA1 171813Z 03009KT 13/02 A302 RMK A01 T01250022  RH  049%=      5-min Rain = 0
KEA1 171814Z 03007KT 13/02 A302 RMK A01 T01250021  RH  049%=      5-min Rain = 0
KEA1 171815Z 03006KT 12/02 A302 RMK A01 T01220019  RH  049%=      5-min Rain = 0
KEA1 171816Z 03005KT 12/02 A302 RMK A01 T01200020  RH  051%=      5-min Rain = 0
KEA1 171817Z 04004KT 12/02 A302 RMK A01 T01200022  RH  051%=      5-min Rain = 0
KEA1 171818Z 03005KT 12/02 A302 RMK A01 T01230023  RH  050%=      5-min Rain = 0
KEA1 171819Z 35008KT 12/02 A3019 RMK A01 T01240022  RH  050%=      5-min Rain = 0
KEA1 171820Z 00007KT 12/02 A3019 RMK A01 T01230020  RH  049%=      5-min Rain = 0
KEA1 171821Z 35004KT 12/02 A3019 RMK A01 T01210019  RH  050%=      5-min Rain = 0
KEA1 171822Z 35006KT 12/02 A3019 RMK A01 T01220021  RH  050%=      5-min Rain = 0
KEA1 171823Z 36008KT 13/02 A3019 RMK A01 T01260021  RH  049%=      5-min Rain = 0
KEA1 171824Z 01012KT 13/02 A3019 RMK A01 T01280021  RH  048%=      5-min Rain = 0
KEA1 171825Z 01011KT 13/02 A3019 RMK A01 T01270019  RH  048%=      5-min Rain = 0
KEA1 171826Z 36009KT 13/02 A3019 RMK A01 T01260019  RH  048%=      5-min Rain = 0
KEA1 171827Z 36008KT 13/02 A3019 RMK A01 T01250019  RH  048%=      5-min Rain = 0
KEA1 171828Z 01005KT 13/02 A3019 RMK A01 T01260019  RH  048%=      5-min Rain = 0
KEA1 171829Z 03008G14KT 13/02 A3019 RMK A01 T01290021  RH  048%=      5-min Rain = 0
KEA1 171830Z 02009KT 13/02 A3019 RMK A01 T01300020  RH  047%=      5-min Rain = 0
KEA1 171831Z 03010KT 13/02 A3019 RMK A01 T01290020  RH  048%=      5-min Rain = 0
KEA1 171832Z 04010KT 13/02 A3019 RMK A01 T01290021  RH  048%=      5-min Rain = 0
KEA1 171833Z 03009KT 13/02 A3019 RMK A01 T01280019  RH  047%=      5-min Rain = 0
KEA1 171834Z 01009KT 13/02 A3019 RMK A01 T01270021  RH  048%=      5-min Rain = 0
KEA1 171835Z 35007KT 13/02 A3019 RMK A01 T01310024  RH  048%=      5-min Rain = 0
KEA1 171836Z 00009KT 13/02 A3019 RMK A01 T01340023  RH  047%=      5-min Rain = 0
KEA1 171837Z 35007KT 13/02 A3019 RMK A01 T01320020  RH  047%=      5-min Rain = 0
KEA1 171838Z 02008KT 13/02 A3019 RMK A01 T01310021  RH  047%=      5-min Rain = 0
KEA1 171839Z 01006KT 13/02 A3019 RMK A01 T01310021  RH  047%=      5-min Rain = 0
KEA1 171840Z 01008KT 13/02 A3019 RMK A01 T01330022  RH  047%=      5-min Rain = 0
KEA1 171841Z 01013KT 13/02 A3018 RMK A01 T01330020  RH  046%=      5-min Rain = 0
KEA1 171842Z 01012KT 13/02 A3019 RMK A01 T01320020  RH  046%=      5-min Rain = 0
KEA1 171843Z 02011KT 13/02 A3019 RMK A01 T01310019  RH  047%=      5-min Rain = 0
KEA1 171844Z 01009KT 13/02 A3019 RMK A01 T01320019  RH  046%=      5-min Rain = 0
KEA1 171845Z 00012KT 13/02 A3019 RMK A01 T01320020  RH  047%=      5-min Rain = 0
KEA1 171846Z 01010KT 13/02 A3019 RMK A01 T01320019  RH  046%=      5-min Rain = 0
KEA1 171847Z 02006KT 13/02 A3019 RMK A01 T01300019  RH  047%=      5-min Rain = 0
KEA1 171848Z 02009KT 13/02 A3019 RMK A01 T01300020  RH  047%=      5-min Rain = 0
KEA1 171849Z 02007KT 13/02 A3019 RMK A01 T01300020  RH  047%=      5-min Rain = 0
KEA1 171850Z 01008KT 13/02 A3019 RMK A01 T01290020  RH  047%=      5-min Rain = 0
KEA1 171851Z 36010G16KT 13/02 A3019 RMK A01 T01290020  RH  048%=      5-min Rain = 0
KEA1 171852Z 03011KT 13/02 A3019 RMK A01 T01300021  RH  047%=      5-min Rain = 0
KEA1 171853Z 02007KT 13/02 A3019 RMK A01 T01330021  RH  047%=      5-min Rain = 0
KEA1 171854Z 02007KT 14/02 A3019 RMK A01 T01350023  RH  046%=      5-min Rain = 0
KEA1 171855Z 01009KT 14/02 A3018 RMK A01 T01390024  RH  046%=      5-min Rain = 0
KEA1 171856Z 02009KT 14/02 A3018 RMK A01 T01380020  RH  045%=      5-min Rain = 0
KEA1 171857Z 01007KT 14/02 A3018 RMK A01 T01350020  RH  046%=      5-min Rain = 0
KEA1 171858Z 00010KT 13/02 A3018 RMK A01 T01340020  RH  046%=      5-min Rain = 0
KEA1 171859Z 33006KT 13/02 A3018 RMK A01 T01330019  RH  046%=      5-min Rain = 0
KEA1 171900Z 34005KT 13/02 A3018 RMK A01 T01310018  RH  046%=      5-min Rain = 0
KEA1 171901Z 35005KT 13/02 A3018 RMK A01 T01310020  RH  047%=      5-min Rain = 0
KEA1 171902Z 02012KT 13/02 A3018 RMK A01 T01330020  RH  046%=      5-min Rain = 0
KEA1 171903Z 01010KT 13/02 A3018 RMK A01 T01330019  RH  046%=      5-min Rain = 0
KEA1 171904Z 01009KT 13/02 A3018 RMK A01 T01320019  RH  046%=      5-min Rain = 0
KEA1 171905Z 00008KT 13/02 A3018 RMK A01 T01320019  RH  046%=      5-min Rain = 0
KEA1 171906Z 02009KT 13/02 A3018 RMK A01 T01320020  RH  047%=      5-min Rain = 0
KEA1 171907Z 03009KT 13/02 A3018 RMK A01 T01330021  RH  047%=      5-min Rain = 0
KEA1 171908Z 02010KT 13/02 A3018 RMK A01 T01340021  RH  046%=      5-min Rain = 0
KEA1 171909Z 00010KT 13/02 A3018 RMK A01 T01330021  RH  046%=      5-min Rain = 0
KEA1 171910Z 03010KT 13/02 A3018 RMK A01 T01340021  RH  046%=      5-min Rain = 0
KEA1 171911Z 01008KT 14/02 A3018 RMK A01 T01360020  RH  045%=      5-min Rain = 0
KEA1 171912Z 01012KT 14/02 A3018 RMK A01 T01360021  RH  046%=      5-min Rain = 0
KEA1 171913Z 01012KT 14/02 A3018 RMK A01 T01360018  RH  045%=      5-min Rain = 0
KEA1 171914Z 01012KT 14/02 A3018 RMK A01 T01360019  RH  045%=      5-min Rain = 0
KEA1 171915Z 00010KT 14/02 A3018 RMK A01 T01370019  RH  045%=      5-min Rain = 0
KEA1 171916Z 01006G11KT 14/02 A3018 RMK A01 T01360018  RH  045%=      5-min Rain = 0
KEA1 171917Z 00013KT 14/02 A3018 RMK A01 T01350019  RH  045%=      5-min Rain = 0
KEA1 171918Z 00012KT 14/02 A3018 RMK A01 T01360020  RH  045%=      5-min Rain = 0
KEA1 171919Z 00012KT 14/02 A3018 RMK A01 T01410023  RH  045%=      5-min Rain = 0
KEA1 171920Z 36010KT 14/02 A3018 RMK A01 T01400018  RH  044%=      5-min Rain = 0
KEA1 171921Z 36010KT 14/02 A3018 RMK A01 T01390020  RH  044%=      5-min Rain = 0
KEA1 171922Z 00008G13KT 14/02 A3018 RMK A01 T01380018  RH  044%=      5-min Rain = 0
KEA1 171923Z 02012KT 14/02 A3018 RMK A01 T01370019  RH  045%=      5-min Rain = 0
KEA1 171924Z 02013KT 14/02 A3017 RMK A01 T01360020  RH  045%=      5-min Rain = 0
KEA1 171925Z 01013KT 14/02 A3017 RMK A01 T01390022  RH  045%=      5-min Rain = 0
KEA1 171926Z 02013KT 14/02 A3017 RMK A01 T01400021  RH  045%=      5-min Rain = 0
KEA1 171927Z 02009KT 14/02 A3017 RMK A01 T01390021  RH  045%=      5-min Rain = 0
KEA1 171928Z 03009KT 14/02 A3017 RMK A01 T01390022  RH  045%=      5-min Rain = 0
KEA1 171929Z 03007KT 14/02 A3017 RMK A01 T01380021  RH  045%=      5-min Rain = 0
KEA1 171930Z 02007KT 14/02 A3017 RMK A01 T01370021  RH  045%=      5-min Rain = 0
KEA1 171931Z 01014KT 14/02 A3017 RMK A01 T01370021  RH  045%=      5-min Rain = 0
KEA1 171932Z 01012KT 14/02 A3017 RMK A01 T01400021  RH  044%=      5-min Rain = 0
KEA1 171933Z 01012KT 14/02 A3017 RMK A01 T01410020  RH  044%=      5-min Rain = 0
KEA1 171934Z 02010KT 14/02 A3017 RMK A01 T01390019  RH  044%=      5-min Rain = 0
KEA1 171935Z 02007KT 14/02 A3017 RMK A01 T01370020  RH  045%=      5-min Rain = 0
KEA1 171936Z 02005KT 14/02 A3017 RMK A01 T01360020  RH  045%=      5-min Rain = 0
KEA1 171937Z 03005KT 14/02 A3017 RMK A01 T01360020  RH  045%=      5-min Rain = 0
KEA1 171938Z 36004KT 13/02 A3017 RMK A01 T01330019  RH  046%=      5-min Rain = 0
KEA1 171939Z 34004KT 13/02 A3016 RMK A01 T01340021  RH  046%=      5-min Rain = 0
KEA1 171940Z 33007G12KT 14/02 A3016 RMK A01 T01370021  RH  045%=      5-min Rain = 0
KEA1 171941Z 35011KT 14/02 A3016 RMK A01 T01370020  RH  045%=      5-min Rain = 0
KEA1 171942Z 36012KT 14/02 A3016 RMK A01 T01360020  RH  045%=      5-min Rain = 0
KEA1 171943Z 01009KT 14/02 A3016 RMK A01 T01370021  RH  045%=      5-min Rain = 0
KEA1 171944Z 01011KT 14/02 A3016 RMK A01 T01400023  RH  045%=      5-min Rain = 0
KEA1 171945Z 00012KT 14/02 A3016 RMK A01 T01430022  RH  044%=      5-min Rain = 0
KEA1 171946Z 03010KT 14/02 A3016 RMK A01 T01420020  RH  044%=      5-min Rain = 0
KEA1 171947Z 04007KT 14/02 A3016 RMK A01 T01400019  RH  044%=      5-min Rain = 0
KEA1 171948Z 00005KT 14/02 A3016 RMK A01 T01370019  RH  045%=      5-min Rain = 0
KEA1 171949Z 34006KT 14/02 A3016 RMK A01 T01370020  RH  045%=      5-min Rain = 0
KEA1 171950Z 00010KT 14/02 A3016 RMK A01 T01390022  RH  045%=      5-min Rain = 0
KEA1 171951Z 36007KT 14/02 A3016 RMK A01 T01400020  RH  044%=      5-min Rain = 0
KEA1 171952Z 35008KT 14/02 A3016 RMK A01 T01370019  RH  045%=      5-min Rain = 0
KEA1 171953Z 34007KT 14/02 A3016 RMK A01 T01370019  RH  045%=      5-min Rain = 0
KEA1 171954Z 33006KT 14/02 A3016 RMK A01 T01370019  RH  045%=      5-min Rain = 0
KEA1 171955Z 34006KT 14/02 A3015 RMK A01 T01390020  RH  045%=      5-min Rain = 0
KEA1 171956Z 33004KT 14/02 A3015 RMK A01 T01380019  RH  044%=      5-min Rain = 0
KEA1 171957Z 00006KT 14/02 A3015 RMK A01 T01370019  RH  045%=      5-min Rain = 0
KEA1 171958Z 03009KT 14/02 A3015 RMK A01 T01400021  RH  044%=      5-min Rain = 0
KEA1 171959Z 02009KT 14/02 A3015 RMK A01 T01410018  RH  043%=      5-min Rain = 0
KEA1 172000Z 03008KT 14/02 A3015 RMK A01 T01410019  RH  044%=      5-min Rain = 0
KEA1 172001Z 03008KT 14/02 A3015 RMK A01 T01410019  RH  044%=      5-min Rain = 0
KEA1 172002Z 04009KT 14/02 A3015 RMK A01 T01390019  RH  044%=      5-min Rain = 0
KEA1 172003Z 03007KT 14/02 A3015 RMK A01 T01390020  RH  044%=      5-min Rain = 0
KEA1 172004Z 36007KT 14/02 A3015 RMK A01 T01390020  RH  044%=      5-min Rain = 0
KEA1 172005Z 01007KT 14/02 A3015 RMK A01 T01400019  RH  044%=      5-min Rain = 0
KEA1 172006Z 03006KT 14/02 A3015 RMK A01 T01400019  RH  044%=      5-min Rain = 0
KEA1 172007Z 04006KT 14/02 A3015 RMK A01 T01400018  RH  044%=      5-min Rain = 0
KEA1 172008Z 05007KT 14/02 A3015 RMK A01 T01400019  RH  044%=      5-min Rain = 0
KEA1 172009Z 05005KT 14/02 A3014 RMK A01 T01400019  RH  044%=      5-min Rain = 0
KEA1 172010Z 06004KT 14/02 A3014 RMK A01 T01390019  RH  044%=      5-min Rain = 0
KEA1 172011Z 04007KT 14/02 A3014 RMK A01 T01390019  RH  044%=      5-min Rain = 0
KEA1 172012Z 05003KT 14/02 A3014 RMK A01 T01370018  RH  044%=      5-min Rain = 0
KEA1 172013Z 32002KT 14/02 A3014 RMK A01 T01350019  RH  045%=      5-min Rain = 0
KEA1 172014Z 00006KT 14/02 A3014 RMK A01 T01390021  RH  045%=      5-min Rain = 0
KEA1 172015Z 01006KT 14/02 A3014 RMK A01 T01420019  RH  044%=      5-min Rain = 0
KEA1 172016Z 01008KT 14/02 A3014 RMK A01 T01440020  RH  043%=      5-min Rain = 0
KEA1 172017Z 00007KT 14/02 A3014 RMK A01 T01440020  RH  043%=      5-min Rain = 0
KEA1 172018Z 35005KT 14/02 A3014 RMK A01 T01440019  RH  043%=      5-min Rain = 0
KEA1 172019Z 33004KT 14/02 A3014 RMK A01 T01410018  RH  043%=      5-min Rain = 0
KEA1 172020Z 01006KT 14/02 A3014 RMK A01 T01400018  RH  044%=      5-min Rain = 0
KEA1 172021Z 03005KT 14/02 A3014 RMK A01 T01400019  RH  044%=      5-min Rain = 0
KEA1 172022Z 01006KT 14/02 A3014 RMK A01 T01420019  RH  043%=      5-min Rain = 0
KEA1 172023Z 35006KT 14/02 A3013 RMK A01 T01430019  RH  043%=      5-min Rain = 0
KEA1 172024Z 33004KT 14/02 A3013 RMK A01 T01430018  RH  043%=      5-min Rain = 0
KEA1 172025Z 33004KT 14/02 A3013 RMK A01 T01390016  RH  043%=      5-min Rain = 0
KEA1 172026Z 36003KT 14/02 A3013 RMK A01 T01380018  RH  044%=      5-min Rain = 0
KEA1 172027Z 00005KT 14/02 A3013 RMK A01 T01400018  RH  043%=      5-min Rain = 0
KEA1 172028Z 00003KT 14/02 A3013 RMK A01 T01410018  RH  043%=      5-min Rain = 0
KEA1 172029Z 00003KT 14/02 A3013 RMK A01 T01430018  RH  043%=      5-min Rain = 0
KEA1 172030Z 02004KT 14/02 A3013 RMK A01 T01440018  RH  042%=      5-min Rain = 0
KEA1 172031Z 04006KT 14/02 A3013 RMK A01 T01440017  RH  042%=      5-min Rain = 0
KEA1 172032Z 05006KT 14/02 A3013 RMK A01 T01430017  RH  042%=      5-min Rain = 0
KEA1 172033Z 04006KT 14/02 A3013 RMK A01 T01420017  RH  043%=      5-min Rain = 0
KEA1 172034Z 05006KT 14/02 A3013 RMK A01 T01420016  RH  043%=      5-min Rain = 0
KEA1 172035Z 04005KT 14/02 A3013 RMK A01 T01410017  RH  043%=      5-min Rain = 0
KEA1 172036Z 06002KT 14/02 A3013 RMK A01 T01420017  RH  043%=      5-min Rain = 0
KEA1 172037Z 08001KT 14/02 A3013 RMK A01 T01430017  RH  043%=      5-min Rain = 0
KEA1 172038Z 03004KT 14/02 A3013 RMK A01 T01430018  RH  042%=      5-min Rain = 0
KEA1 172039Z 03005KT 14/02 A3013 RMK A01 T01440017  RH  042%=      5-min Rain = 0
KEA1 172040Z 04006KT 15/02 A3013 RMK A01 T01470017  RH  041%=      5-min Rain = 0
KEA1 172041Z 03004G9KT 14/02 A3013 RMK A01 T01440015  RH  042%=      5-min Rain = 0
KEA1 172042Z 03007KT 14/02 A3013 RMK A01 T01430016  RH  042%=      5-min Rain = 0
KEA1 172043Z 03006KT 14/02 A3013 RMK A01 T01440015  RH  042%=      5-min Rain = 0
KEA1 172044Z 05006KT 14/02 A3013 RMK A01 T01440015  RH  042%=      5-min Rain = 0
KEA1 172045Z 05005KT 14/01 A3013 RMK A01 T01410014  RH  042%=      5-min Rain = 0
KEA1 172046Z 04004KT 14/01 A3013 RMK A01 T01400013  RH  042%=      5-min Rain = 0
KEA1 172047Z 02007KT 14/02 A3012 RMK A01 T01420015  RH  042%=      5-min Rain = 0
KEA1 172048Z 02007KT 14/02 A3012 RMK A01 T01440016  RH  042%=      5-min Rain = 0
KEA1 172049Z 02006KT 15/02 A3012 RMK A01 T01470017  RH  042%=      5-min Rain = 0
KEA1 172050Z 03005KT 15/02 A3012 RMK A01 T01470017  RH  041%=      5-min Rain = 0
KEA1 172051Z 04005KT 15/02 A3012 RMK A01 T01470017  RH  042%=      5-min Rain = 0
KEA1 172052Z 04003KT 14/02 A3012 RMK A01 T01440016  RH  042%=      5-min Rain = 0
KEA1 172053Z 07002KT 14/02 A3012 RMK A01 T01420016  RH  042%=      5-min Rain = 0
KEA1 172054Z 06002KT 14/02 A3012 RMK A01 T01410015  RH  042%=      5-min Rain = 0
KEA1 172055Z 03002KT 14/02 A3012 RMK A01 T01400016  RH  043%=      5-min Rain = 0
KEA1 172056Z 12000KT 14/02 A3012 RMK A01 T01410016  RH  043%=      5-min Rain = 0
KEA1 172057Z 03002KT 14/02 A3012 RMK A01 T01420016  RH  042%=      5-min Rain = 0
KEA1 172058Z 00003KT 14/02 A3012 RMK A01 T01440016  RH  042%=      5-min Rain = 0
KEA1 172059Z 32004KT 15/02 A3012 RMK A01 T01450016  RH  042%=      5-min Rain = 0
KEA1 172100Z 33003KT 15/02 A3012 RMK A01 T01470017  RH  041%=      5-min Rain = 0
KEA1 172101Z 35002KT 15/02 A3012 RMK A01 T01470016  RH  041%=      5-min Rain = 0
KEA1 172102Z 34005KT 15/02 A3012 RMK A01 T01470015  RH  041%=      5-min Rain = 0
KEA1 172103Z 32002KT 15/01 A3012 RMK A01 T01450014  RH  041%=      5-min Rain = 0
KEA1 172104Z 30003KT 15/01 A3012 RMK A01 T01450014  RH  041%=      5-min Rain = 0
KEA1 172105Z 29004KT 15/01 A3012 RMK A01 T01450014  RH  041%=      5-min Rain = 0
KEA1 172106Z 26004KT 14/01 A3012 RMK A01 T01430013  RH  041%=      5-min Rain = 0
KEA1 172107Z 27003KT 15/02 A3012 RMK A01 T01450015  RH  041%=      5-min Rain = 0
KEA1 172108Z 23001KT 15/01 A3012 RMK A01 T01450014  RH  041%=      5-min Rain = 0
KEA1 172109Z 31003KT 15/02 A3012 RMK A01 T01490017  RH  041%=      5-min Rain = 0
KEA1 172110Z 30003KT 15/02 A3012 RMK A01 T01510016  RH  040%=      5-min Rain = 0
KEA1 172111Z 02005KT 15/01 A3012 RMK A01 T01520012  RH  039%=      5-min Rain = 0
KEA1 172112Z 02003KT 15/01 A3012 RMK A01 T01510008  RH  038%=      5-min Rain = 0
KEA1 172113Z 36002G7KT 15/01 A3012 RMK A01 T01490009  RH  039%=      5-min Rain = 0
KEA1 172114Z 33005KT 15/01 A3012 RMK A01 T01480011  RH  039%=      5-min Rain = 0
KEA1 172115Z 33004KT 15/01 A3012 RMK A01 T01480011  RH  040%=      5-min Rain = 0
KEA1 172116Z 36005KT 15/01 A3012 RMK A01 T01480013  RH  040%=      5-min Rain = 0
KEA1 172117Z 01006KT 15/02 A3012 RMK A01 T01510015  RH  040%=      5-min Rain = 0
KEA1 172118Z 02005KT 15/01 A3011 RMK A01 T01520014  RH  039%=      5-min Rain = 0
KEA1 172119Z 03005KT 15/01 A3011 RMK A01 T01510013  RH  039%=      5-min Rain = 0
KEA1 172120Z 03005KT 15/01 A3011 RMK A01 T01490012  RH  039%=      5-min Rain = 0
KEA1 172121Z 04005KT 15/01 A3011 RMK A01 T01490013  RH  040%=      5-min Rain = 0
KEA1 172122Z 04006KT 15/01 A3011 RMK A01 T01490013  RH  040%=      5-min Rain = 0
KEA1 172123Z 05006KT 15/01 A3011 RMK A01 T01470012  RH  040%=      5-min Rain = 0
KEA1 172124Z 05005KT 15/01 A3011 RMK A01 T01450011  RH  040%=      5-min Rain = 0
KEA1 172125Z 06003KT 14/01 A3011 RMK A01 T01440009  RH  040%=      5-min Rain = 0
KEA1 172126Z 10002KT 14/01 A3011 RMK A01 T01440009  RH  040%=      5-min Rain = 0
KEA1 172127Z 05001KT 14/01 A3011 RMK A01 T01430009  RH  040%=      5-min Rain = 0
KEA1 172128Z 09001KT 15/01 A3011 RMK A01 T01450011  RH  040%=      5-min Rain = 0
KEA1 172129Z 06001KT 15/01 A3011 RMK A01 T01470010  RH  039%=      5-min Rain = 0
KEA1 172130Z 04001KT 15/01 A3011 RMK A01 T01490012  RH  039%=      5-min Rain = 0
KEA1 172131Z 01001KT 15/01 A3011 RMK A01 T01510013  RH  039%=      5-min Rain = 0
KEA1 172132Z 01003KT 15/01 A3011 RMK A01 T01530013  RH  039%=      5-min Rain = 0
KEA1 172133Z 02002KT 15/01 A3011 RMK A01 T01540013  RH  039%=      5-min Rain = 0
KEA1 172134Z 03002KT 15/01 A3011 RMK A01 T01540014  RH  039%=      5-min Rain = 0
KEA1 172135Z 02002KT 15/01 A3011 RMK A01 T01530012  RH  038%=      5-min Rain = 0
KEA1 172136Z 02001KT 15/01 A3011 RMK A01 T01520013  RH  039%=      5-min Rain = 0
KEA1 172137Z 32002KT 15/01 A3011 RMK A01 T01520013  RH  039%=      5-min Rain = 0
KEA1 172138Z 32002KT 15/01 A3011 RMK A01 T01520013  RH  039%=      5-min Rain = 0
KEA1 172139Z 34003KT 15/02 A3011 RMK A01 T01540015  RH  039%=      5-min Rain = 0
KEA1 172140Z 33004KT 15/01 A3011 RMK A01 T01540014  RH  039%=      5-min Rain = 0
KEA1 172141Z 34005KT 15/01 A3011 RMK A01 T01520013  RH  039%=      5-min Rain = 0
KEA1 172142Z 35004KT 15/01 A3011 RMK A01 T01510014  RH  039%=      5-min Rain = 0
KEA1 172143Z 34003KT 15/02 A3011 RMK A01 T01510015  RH  040%=      5-min Rain = 0
KEA1 172144Z 35004KT 15/01 A3011 RMK A01 T01530014  RH  039%=      5-min Rain = 0
KEA1 172145Z 36003KT 15/01 A3011 RMK A01 T01520012  RH  039%=      5-min Rain = 0
KEA1 172146Z 01004KT 15/01 A3011 RMK A01 T01510013  RH  039%=      5-min Rain = 0
KEA1 172147Z 01004KT 15/01 A3011 RMK A01 T01510012  RH  039%=      5-min Rain = 0
KEA1 172148Z 00002KT 15/01 A3011 RMK A01 T01500013  RH  039%=      5-min Rain = 0
KEA1 172149Z 01002KT 15/01 A3011 RMK A01 T01490012  RH  039%=      5-min Rain = 0
KEA1 172150Z 01003KT 15/01 A3011 RMK A01 T01490012  RH  039%=      5-min Rain = 0
KEA1 172151Z 03003KT 15/01 A3011 RMK A01 T01490012  RH  039%=      5-min Rain = 0
KEA1 172152Z 01002KT 15/01 A3011 RMK A01 T01490013  RH  040%=      5-min Rain = 0
KEA1 172153Z 35002KT 15/01 A3011 RMK A01 T01500014  RH  040%=      5-min Rain = 0
KEA1 172154Z 35002KT 15/01 A3011 RMK A01 T01510013  RH  039%=      5-min Rain = 0
KEA1 172155Z 36001KT 15/01 A3011 RMK A01 T01530014  RH  039%=      5-min Rain = 0
KEA1 172156Z 00002KT 15/01 A3011 RMK A01 T01540014  RH  039%=      5-min Rain = 0
KEA1 172157Z 02004KT 16/01 A3011 RMK A01 T01550014  RH  038%=      5-min Rain = 0
KEA1 172158Z 02003KT 16/01 A3011 RMK A01 T01550013  RH  038%=      5-min Rain = 0
KEA1 172159Z 03002KT 15/01 A3011 RMK A01 T01540013  RH  038%=      5-min Rain = 0
KEA1 172200Z 06003KT 15/01 A3011 RMK A01 T01520013  RH  039%=      5-min Rain = 0
KEA1 172201Z 06003KT 15/01 A3011 RMK A01 T01500013  RH  039%=      5-min Rain = 0
KEA1 172202Z 05003KT 15/01 A3011 RMK A01 T01480012  RH  040%=      5-min Rain = 0
KEA1 172203Z 06002KT 15/01 A3011 RMK A01 T01470013  RH  040%=      5-min Rain = 0
KEA1 172204Z 08001KT 15/01 A3011 RMK A01 T01470013  RH  040%=      5-min Rain = 0
KEA1 172205Z 04002KT 15/01 A3011 RMK A01 T01470012  RH  040%=      5-min Rain = 0
KEA1 172206Z 03002KT 15/01 A3011 RMK A01 T01480013  RH  040%=      5-min Rain = 0
KEA1 172207Z 04002KT 15/01 A3011 RMK A01 T01480013  RH  040%=      5-min Rain = 0
KEA1 172208Z 35003KT 15/01 A3011 RMK A01 T01500013  RH  040%=      5-min Rain = 0
KEA1 172209Z 34004KT 15/02 A3011 RMK A01 T01520015  RH  039%=      5-min Rain = 0
KEA1 172210Z 00005KT 15/01 A3011 RMK A01 T01540014  RH  039%=      5-min Rain = 0
KEA1 172211Z 01003KT 15/01 A3011 RMK A01 T01530013  RH  039%=      5-min Rain = 0
KEA1 172212Z 03002KT 15/01 A3011 RMK A01 T01510012  RH  039%=      5-min Rain = 0
KEA1 172213Z 06002KT 15/01 A3011 RMK A01 T01480012  RH  040%=      5-min Rain = 0
KEA1 172214Z 05001KT 15/01 A3011 RMK A01 T01470013  RH  040%=      5-min Rain = 0
KEA1 172215Z 01003KT 15/01 A3011 RMK A01 T01470013  RH  040%=      5-min Rain = 0
KEA1 172216Z 33003KT 15/01 A3011 RMK A01 T01480014  RH  040%=      5-min Rain = 0
KEA1 172217Z 01002KT 15/01 A3011 RMK A01 T01490014  RH  040%=      5-min Rain = 0
KEA1 172218Z 01001KT 15/01 A3011 RMK A01 T01500013  RH  040%=      5-min Rain = 0
KEA1 172219Z 03001KT 15/01 A3012 RMK A01 T01500013  RH  039%=      5-min Rain = 0
KEA1 172220Z 01000KT 15/01 A3012 RMK A01 T01510014  RH  039%=      5-min Rain = 0
KEA1 172221Z 34001KT 15/01 A3012 RMK A01 T01520014  RH  039%=      5-min Rain = 0
KEA1 172222Z 34003KT 15/01 A3012 RMK A01 T01530014  RH  039%=      5-min Rain = 0
KEA1 172223Z 34001KT 15/01 A3012 RMK A01 T01520013  RH  039%=      5-min Rain = 0
KEA1 172224Z 34001KT 15/01 A3012 RMK A01 T01520014  RH  039%=      5-min Rain = 0
KEA1 172225Z 34002KT 15/01 A3012 RMK A01 T01530014  RH  039%=      5-min Rain = 0
KEA1 172226Z 21001KT 15/01 A3012 RMK A01 T01540013  RH  039%=      5-min Rain = 0
KEA1 172227Z 22002KT 16/01 A3012 RMK A01 T01550014  RH  039%=      5-min Rain = 0
KEA1 172228Z 20001KT 15/01 A3012 RMK A01 T01540014  RH  039%=      5-min Rain = 0
KEA1 172229Z 16002KT 16/02 A3012 RMK A01 T01550015  RH  039%=      5-min Rain = 0
KEA1 172230Z 16001KT 16/02 A3012 RMK A01 T01570015  RH  038%=      5-min Rain = 0
KEA1 172231Z 15002KT 16/01 A3012 RMK A01 T01570014  RH  038%=      5-min Rain = 0
KEA1 172232Z 14001KT 16/02 A3012 RMK A01 T01570015  RH  038%=      5-min Rain = 0
KEA1 172233Z 26000KT 16/02 A3012 RMK A01 T01560015  RH  038%=      5-min Rain = 0
KEA1 172234Z 28002KT 16/02 A3012 RMK A01 T01570015  RH  038%=      5-min Rain = 0
KEA1 172235Z 30003KT 16/02 A3012 RMK A01 T01560015  RH  038%=      5-min Rain = 0
KEA1 172236Z 27003KT 16/02 A3012 RMK A01 T01550015  RH  039%=      5-min Rain = 0
KEA1 172237Z 26003KT 16/02 A3012 RMK A01 T01550016  RH  039%=      5-min Rain = 0
KEA1 172238Z 27003KT 16/02 A3012 RMK A01 T01550015  RH  039%=      5-min Rain = 0
KEA1 172239Z 28005KT 15/02 A3012 RMK A01 T01530015  RH  039%=      5-min Rain = 0
KEA1 172240Z 27005KT 15/01 A3012 RMK A01 T01510013  RH  039%=      5-min Rain = 0
KEA1 172241Z 27003KT 15/01 A3012 RMK A01 T01500014  RH  040%=      5-min Rain = 0
KEA1 172242Z 28004KT 15/02 A3012 RMK A01 T01520015  RH  039%=      5-min Rain = 0
KEA1 172243Z 29004KT 15/02 A3012 RMK A01 T01520015  RH  040%=      5-min Rain = 0
KEA1 172244Z 31003KT 15/02 A3012 RMK A01 T01510015  RH  040%=      5-min Rain = 0
KEA1 172245Z 32004KT 15/02 A3012 RMK A01 T01500015  RH  040%=      5-min Rain = 0
KEA1 172246Z 33004KT 15/02 A3012 RMK A01 T01490016  RH  040%=      5-min Rain = 0
KEA1 172247Z 32004KT 15/02 A3012 RMK A01 T01490015  RH  040%=      5-min Rain = 0
KEA1 172248Z 32004KT 15/02 A3011 RMK A01 T01480015  RH  040%=      5-min Rain = 0
KEA1 172249Z 31003KT 15/01 A3011 RMK A01 T01470014  RH  040%=      5-min Rain = 0
KEA1 172250Z 29003KT 15/01 A3011 RMK A01 T01460014  RH  041%=      5-min Rain = 0
KEA1 172251Z 29005KT 15/01 A3011 RMK A01 T01470014  RH  041%=      5-min Rain = 0
KEA1 172252Z 30005KT 15/01 A3011 RMK A01 T01470014  RH  040%=      5-min Rain = 0
KEA1 172253Z 27006KT 15/01 A3012 RMK A01 T01470014  RH  040%=      5-min Rain = 0
KEA1 172254Z 27005KT 15/01 A3012 RMK A01 T01470013  RH  040%=      5-min Rain = 0
KEA1 172255Z 29006KT 15/01 A3012 RMK A01 T01480012  RH  040%=      5-min Rain = 0
KEA1 172256Z 29005KT 15/01 A3012 RMK A01 T01480012  RH  039%=      5-min Rain = 0
KEA1 172257Z 28005KT 15/01 A3012 RMK A01 T01470012  RH  040%=      5-min Rain = 0
KEA1 172258Z 29005KT 15/01 A3012 RMK A01 T01470012  RH  040%=      5-min Rain = 0
KEA1 172259Z 28005KT 15/01 A3012 RMK A01 T01470012  RH  040%=      5-min Rain = 0
KEA1 172300Z 30004KT 15/01 A3012 RMK A01 T01460011  RH  040%=      5-min Rain = 0
KEA1 172301Z 31006KT 15/01 A3012 RMK A01 T01450011  RH  040%=      5-min Rain = 0
KEA1 172302Z 31005KT 14/01 A3012 RMK A01 T01440012  RH  041%=      5-min Rain = 0
KEA1 172303Z 31006KT 14/01 A3012 RMK A01 T01440012  RH  041%=      5-min Rain = 0
KEA1 172304Z 32006KT 14/01 A3012 RMK A01 T01430012  RH  041%=      5-min Rain = 0
KEA1 172305Z 32005KT 14/01 A3012 RMK A01 T01430012  RH  041%=      5-min Rain = 0
KEA1 172306Z 32006KT 14/01 A3012 RMK A01 T01430012  RH  041%=      5-min Rain = 0
KEA1 172307Z 33006KT 14/01 A3012 RMK A01 T01420012  RH  041%=      5-min Rain = 0
KEA1 172308Z 32005KT 14/01 A3012 RMK A01 T01420012  RH  041%=      5-min Rain = 0
KEA1 172309Z 31005KT 14/01 A3012 RMK A01 T01420012  RH  041%=      5-min Rain = 0
KEA1 172310Z 31005KT 14/01 A3012 RMK A01 T01420012  RH  041%=      5-min Rain = 0
KEA1 172311Z 30004KT 14/01 A3012 RMK A01 T01410011  RH  041%=      5-min Rain = 0
KEA1 172312Z 30005KT 14/01 A3012 RMK A01 T01410012  RH  042%=      5-min Rain = 0
KEA1 172313Z 30005KT 14/01 A3012 RMK A01 T01400012  RH  042%=      5-min Rain = 0
KEA1 172314Z 30004KT 14/01 A3012 RMK A01 T01400012  RH  042%=      5-min Rain = 0
KEA1 172315Z 30005KT 14/01 A3012 RMK A01 T01400013  RH  042%=      5-min Rain = 0
KEA1 172316Z 30005KT 14/01 A3012 RMK A01 T01390012  RH  042%=      5-min Rain = 0
KEA1 172317Z 30005KT 14/01 A3012 RMK A01 T01390012  RH  042%=      5-min Rain = 0
KEA1 172318Z 31004KT 14/01 A3012 RMK A01 T01380011  RH  042%=      5-min Rain = 0
KEA1 172319Z 31005KT 14/01 A3012 RMK A01 T01370011  RH  042%=      5-min Rain = 0
KEA1 172320Z 31005KT 14/01 A3012 RMK A01 T01370010  RH  042%=      5-min Rain = 0
KEA1 172321Z 31005KT 14/01 A3012 RMK A01 T01360010  RH  042%=      5-min Rain = 0
KEA1 172322Z 31005KT 14/01 A3012 RMK A01 T01360011  RH  043%=      5-min Rain = 0
KEA1 172323Z 31005KT 14/01 A3012 RMK A01 T01350010  RH  043%=      5-min Rain = 0
KEA1 172324Z 31005KT 13/01 A3012 RMK A01 T01340010  RH  043%=      5-min Rain = 0
KEA1 172325Z 30005KT 13/01 A3012 RMK A01 T01330010  RH  043%=      5-min Rain = 0
KEA1 172326Z 30005KT 13/01 A3012 RMK A01 T01320010  RH  043%=      5-min Rain = 0
KEA1 172327Z 30005KT 13/01 A3012 RMK A01 T01310009  RH  043%=      5-min Rain = 0
KEA1 172328Z 30006KT 13/01 A3012 RMK A01 T01300010  RH  044%=      5-min Rain = 0
KEA1 172329Z 31006KT 13/01 A3011 RMK A01 T01280010  RH  044%=      5-min Rain = 0
KEA1 172330Z 31005KT 13/01 A3011 RMK A01 T01270011  RH  045%=      5-min Rain = 0
KEA1 172331Z 31005KT 13/01 A3011 RMK A01 T01250011  RH  046%=      5-min Rain = 0
KEA1 172332Z 31005KT 12/01 A3011 RMK A01 T01240010  RH  046%=      5-min Rain = 0
KEA1 172333Z 31005KT 12/01 A3011 RMK A01 T01240010  RH  046%=      5-min Rain = 0
KEA1 172334Z 31004KT 12/01 A3011 RMK A01 T01230010  RH  046%=      5-min Rain = 0
KEA1 172335Z 31004KT 12/01 A3012 RMK A01 T01220010  RH  046%=      5-min Rain = 0
KEA1 172336Z 31004KT 12/01 A3012 RMK A01 T01210010  RH  046%=      5-min Rain = 0
KEA1 172337Z 29002KT 12/01 A3012 RMK A01 T01210010  RH  046%=      5-min Rain = 0
KEA1 172338Z 17002KT 12/01 A3012 RMK A01 T01200009  RH  046%=      5-min Rain = 0
KEA1 172339Z 15002KT 12/01 A3012 RMK A01 T01200009  RH  047%=      5-min Rain = 0
KEA1 172340Z 13003KT 12/01 A3012 RMK A01 T01190009  RH  047%=      5-min Rain = 0
KEA1 172341Z 13004KT 12/01 A3012 RMK A01 T01190011  RH  047%=      5-min Rain = 0
KEA1 172342Z 12003KT 12/01 A3012 RMK A01 T01210012  RH  047%=      5-min Rain = 0
KEA1 172343Z 11003KT 12/01 A3012 RMK A01 T01210012  RH  047%=      5-min Rain = 0
KEA1 172344Z 10002KT 12/01 A3012 RMK A01 T01220012  RH  047%=      5-min Rain = 0
KEA1 172345Z 09002KT 12/01 A3012 RMK A01 T01230012  RH  047%=      5-min Rain = 0
KEA1 172346Z 08002KT 12/01 A3012 RMK A01 T01230013  RH  047%=      5-min Rain = 0
KEA1 172347Z 08002KT 12/01 A3012 RMK A01 T01230013  RH  047%=      5-min Rain = 0
KEA1 172348Z 09002KT 12/01 A3012 RMK A01 T01230012  RH  047%=      5-min Rain = 0
KEA1 172349Z 08002KT 12/01 A3012 RMK A01 T01220012  RH  047%=      5-min Rain = 0
KEA1 172350Z 10002KT 12/01 A3012 RMK A01 T01200011  RH  047%=      5-min Rain = 0
KEA1 172351Z 10003KT 12/01 A3012 RMK A01 T01180010  RH  047%=      5-min Rain = 0
KEA1 172352Z 08002KT 12/01 A3012 RMK A01 T01160008  RH  047%=      5-min Rain = 0
KEA1 172353Z 07001KT 11/01 A3012 RMK A01 T01130006  RH  048%=      5-min Rain = 0
KEA1 172354Z 07001KT 11/01 A3012 RMK A01 T01090005  RH  049%=      5-min Rain = 0
KEA1 172355Z 34000KT 11/00 A3012 RMK A01 T01050004  RH  049%=      5-min Rain = 0
KEA1 172356Z 36001KT 10/01 A3012 RMK A01 T01040007  RH  051%=      5-min Rain = 0
KEA1 172357Z 34001KT 11/01 A3012 RMK A01 T01070010  RH  051%=      5-min Rain = 0
KEA1 172358Z 34001KT 11/01 A3012 RMK A01 T01090011  RH  051%=      5-min Rain = 0
KEA1 172359Z 33001KT 11/01 A3012 RMK A01 T01090011  RH  051%=      5-min Rain = 0
KEA1 180000Z 00000KT 11/01 A3012 RMK A01 T01100011  RH  051%=      5-min Rain = 0
KEA1 180001Z 21000KT 11/01 A3012 RMK A01 T01110011  RH  050%=      5-min Rain = 0
KEA1 180002Z 21000KT 11/01 A3012 RMK A01 T01120012  RH  050%=      5-min Rain = 0
KEA1 180003Z 00000KT 11/01 A3012 RMK A01 T01120012  RH  050%=      5-min Rain = 0
KEA1 180004Z 00000KT 11/01 A3011 RMK A01 T01130012  RH  050%=      5-min Rain = 0
KEA1 180005Z 00000KT 12/01 A3011 RMK A01 T01150012  RH  049%=      5-min Rain = 0
KEA1 180006Z 34000KT 12/01 A3012 RMK A01 T01180014  RH  049%=      5-min Rain = 0
KEA1 180007Z 32001KT 12/02 A3012 RMK A01 T01210015  RH  048%=      5-min Rain = 0
KEA1 180008Z 30000KT 12/01 A3012 RMK A01 T01240014  RH  047%=      5-min Rain = 0
KEA1 180009Z 27000KT 13/01 A3012 RMK A01 T01260014  RH  046%=      5-min Rain = 0
KEA1 180010Z 29001KT 13/01 A3012 RMK A01 T01280014  RH  046%=      5-min Rain = 0
KEA1 180011Z 30001KT 13/01 A3012 RMK A01 T01290013  RH  045%=      5-min Rain = 0
KEA1 180012Z 10001KT 13/01 A3012 RMK A01 T01250008  RH  045%=      5-min Rain = 0
KEA1 180013Z 11002KT 12/01 A3012 RMK A01 T01170006  RH  046%=      5-min Rain = 0
KEA1 180014Z 10002KT 11/01 A3012 RMK A01 T01130008  RH  048%=      5-min Rain = 0
KEA1 180015Z 10002KT 11/01 A3012 RMK A01 T01110008  RH  049%=      5-min Rain = 0
KEA1 180016Z 10002KT 11/01 A3012 RMK A01 T01110009  RH  050%=      5-min Rain = 0
KEA1 180017Z 10002KT 11/01 A3012 RMK A01 T01100010  RH  050%=      5-min Rain = 0
KEA1 180018Z 10002KT 11/01 A3012 RMK A01 T01110010  RH  050%=      5-min Rain = 0
KEA1 180019Z 10002KT 11/01 A3012 RMK A01 T01110010  RH  050%=      5-min Rain = 0
KEA1 180020Z 10002KT 11/01 A3012 RMK A01 T01120012  RH  050%=      5-min Rain = 0
KEA1 180021Z 10001KT 12/01 A3012 RMK A01 T01170013  RH  049%=      5-min Rain = 0
KEA1 180022Z 08001KT 12/01 A3012 RMK A01 T01200014  RH  048%=      5-min Rain = 0
KEA1 180023Z 08001KT 12/01 A3012 RMK A01 T01220013  RH  047%=      5-min Rain = 0
KEA1 180024Z 08001KT 12/01 A3012 RMK A01 T01230013  RH  047%=      5-min Rain = 0
KEA1 180025Z 09001KT 12/01 A3012 RMK A01 T01230011  RH  046%=      5-min Rain = 0
KEA1 180026Z 09001KT 12/01 A3012 RMK A01 T01170007  RH  047%=      5-min Rain = 0
KEA1 180027Z 08002KT 11/01 A3012 RMK A01 T01100005  RH  048%=      5-min Rain = 0
KEA1 180028Z 09001KT 11/01 A3012 RMK A01 T01050005  RH  050%=      5-min Rain = 0
KEA1 180029Z 10001KT 10/01 A3012 RMK A01 T01010005  RH  051%=      5-min Rain = 0
KEA1 180030Z 11001KT 10/01 A3012 RMK A01 T00980006  RH  052%=      5-min Rain = 0
KEA1 180031Z 12001KT 10/01 A3012 RMK A01 T00970006  RH  053%=      5-min Rain = 0
KEA1 180032Z 12001KT 09/01 A3012 RMK A01 T00940005  RH  053%=      5-min Rain = 0
KEA1 180033Z 13002KT 09/00 A3011 RMK A01 T00910003  RH  054%=      5-min Rain = 0
KEA1 180034Z 13002KT 09/00 A3011 RMK A01 T00870001  RH  055%=      5-min Rain = 0
KEA1 180035Z 13002KT 09/00 A3011 RMK A01 T00850003  RH  056%=      5-min Rain = 0
KEA1 180036Z 13002KT 09/00 A3011 RMK A01 T00850003  RH  056%=      5-min Rain = 0
KEA1 180037Z 13003KT 08/00 A3011 RMK A01 T00830001  RH  056%=      5-min Rain = 0
KEA1 180038Z 12003KT 08/00 A3011 RMK A01 T00810001  RH  057%=      5-min Rain = 0
KEA1 180039Z 12003KT 08/00 A3011 RMK A01 T00810003  RH  058%=      5-min Rain = 0
KEA1 180040Z 12003KT 09/01 A3011 RMK A01 T00850007  RH  058%=      5-min Rain = 0
KEA1 180041Z 12003KT 09/01 A3011 RMK A01 T00880007  RH  057%=      5-min Rain = 0
KEA1 180042Z 12003KT 09/01 A3011 RMK A01 T00900007  RH  056%=      5-min Rain = 0
KEA1 180043Z 12003KT 09/01 A3011 RMK A01 T00910006  RH  055%=      5-min Rain = 0
KEA1 180044Z 11003KT 09/00 A3011 RMK A01 T00900003  RH  054%=      5-min Rain = 0
KEA1 180045Z 10002KT 09/00 A3011 RMK A01 T00870004  RH  056%=      5-min Rain = 0
KEA1 180046Z 10002KT 09/01 A3011 RMK A01 T00890008  RH  057%=      5-min Rain = 0
KEA1 180047Z 10002KT 09/01 A3011 RMK A01 T00920008  RH  056%=      5-min Rain = 0
KEA1 180048Z 10002KT 09/01 A3011 RMK A01 T00940007  RH  055%=      5-min Rain = 0
KEA1 180049Z 10002KT 09/01 A3011 RMK A01 T00940006  RH  054%=      5-min Rain = 0
KEA1 180050Z 10002KT 09/00 A3011 RMK A01 T00930001  RH  053%=      5-min Rain = 0
KEA1 180051Z 10001KT 09/00 A3011 RMK A01 T00900004  RH  055%=      5-min Rain = 0
KEA1 180052Z 09001KT 09/01 A3011 RMK A01 T00900006  RH  056%=      5-min Rain = 0
KEA1 180053Z 09001KT 09/01 A3011 RMK A01 T00920008  RH  056%=      5-min Rain = 0
KEA1 180054Z 09000KT 09/01 A3011 RMK A01 T00930006  RH  054%=      5-min Rain = 0
KEA1 180055Z 09000KT 09/00 A3011 RMK A01 T00920003  RH  054%=      5-min Rain = 0
KEA1 180056Z 13001KT 09/00 A3011 RMK A01 T00900004  RH  055%=      5-min Rain = 0
KEA1 180057Z 13001KT 09/01 A3011 RMK A01 T00900006  RH  056%=      5-min Rain = 0
KEA1 180058Z 13000KT 09/01 A3011 RMK A01 T00910007  RH  055%=      5-min Rain = 0
KEA1 180059Z 12001KT 09/01 A3011 RMK A01 T00920006  RH  055%=      5-min Rain = 0
KEA1 180100Z 14002KT 09/01 A3011 RMK A01 T00930007  RH  055%=      5-min Rain = 0
KEA1 180101Z 13003KT 09/01 A3011 RMK A01 T00930007  RH  055%=      5-min Rain = 0
KEA1 180102Z 13003KT 09/01 A3011 RMK A01 T00940007  RH  055%=      5-min Rain = 0
KEA1 180103Z 13004KT 09/01 A3011 RMK A01 T00940006  RH  054%=      5-min Rain = 0
KEA1 180104Z 13004KT 09/01 A3011 RMK A01 T00940007  RH  054%=      5-min Rain = 0
KEA1 180105Z 13004KT 09/01 A3011 RMK A01 T00940006  RH  054%=      5-min Rain = 0
KEA1 180106Z 13005KT 09/01 A3011 RMK A01 T00940006  RH  054%=      5-min Rain = 0
KEA1 180107Z 13005KT 09/01 A3011 RMK A01 T00930006  RH  054%=      5-min Rain = 0
KEA1 180108Z 12005KT 09/00 A3011 RMK A01 T00920004  RH  054%=      5-min Rain = 0
KEA1 180109Z 12005KT 09/00 A3011 RMK A01 T00890002  RH  055%=      5-min Rain = 0
KEA1 180110Z 11005KT 09/00 A3011 RMK A01 T00860001  RH  055%=      5-min Rain = 0
KEA1 180111Z 12005KT 08/00 A3011 RMK A01 T00820000  RH  056%=      5-min Rain = 0
KEA1 180112Z 12005KT 08/00 A3011 RMK A01 T00800001  RH  058%=      5-min Rain = 0
KEA1 180113Z 11005KT 08/M00 A3011 RMK A01 T00761003  RH  057%=      5-min Rain = 0
KEA1 180114Z 12006KT 07/M00 A3011 RMK A01 T00721002  RH  059%=      5-min Rain = 0
KEA1 180115Z 12006KT 07/00 A3011 RMK A01 T00720001  RH  061%=      5-min Rain = 0
KEA1 180116Z 12005KT 07/M00 A3011 RMK A01 T00731002  RH  059%=      5-min Rain = 0
KEA1 180117Z 12006KT 07/M01 A3011 RMK A01 T00691005  RH  059%=      5-min Rain = 0
KEA1 180118Z 12006KT 07/M00 A3011 RMK A01 T00681002  RH  061%=      5-min Rain = 0
KEA1 180119Z 12005KT 07/M00 A3011 RMK A01 T00681002  RH  061%=      5-min Rain = 0
KEA1 180120Z 12005KT 07/M00 A3011 RMK A01 T00681002  RH  061%=      5-min Rain = 0
KEA1 180121Z 12005KT 07/M00 A3012 RMK A01 T00671001  RH  062%=      5-min Rain = 0
KEA1 180122Z 12005KT 07/M00 A3012 RMK A01 T00671003  RH  061%=      5-min Rain = 0
KEA1 180123Z 12005KT 07/M00 A3012 RMK A01 T00661004  RH  061%=      5-min Rain = 0
KEA1 180124Z 12005KT 07/M00 A3012 RMK A01 T00651003  RH  062%=      5-min Rain = 0
KEA1 180125Z 12005KT 06/M00 A3011 RMK A01 T00641004  RH  062%=      5-min Rain = 0
KEA1 180126Z 12005KT 06/M00 A3011 RMK A01 T00631004  RH  062%=      5-min Rain = 0
KEA1 180127Z 12005KT 06/M01 A3011 RMK A01 T00621005  RH  062%=      5-min Rain = 0
KEA1 180128Z 11004KT 06/M01 A3011 RMK A01 T00601006  RH  062%=      5-min Rain = 0
KEA1 180129Z 10002KT 06/M00 A3011 RMK A01 T00601004  RH  064%=      5-min Rain = 0
KEA1 180130Z 10001KT 06/M00 A3012 RMK A01 T00601004  RH  064%=      5-min Rain = 0
KEA1 180131Z 10000KT 06/M00 A3012 RMK A01 T00601003  RH  064%=      5-min Rain = 0
KEA1 180132Z 29001KT 06/00 A3012 RMK A01 T006200-0  RH  065%=      5-min Rain = 0
KEA1 180133Z 29001KT 06/00 A3012 RMK A01 T006300-0  RH  064%=      5-min Rain = 0
KEA1 180134Z 29000KT 07/00 A3012 RMK A01 T00650003  RH  064%=      5-min Rain = 0
KEA1 180135Z 30000KT 07/01 A3012 RMK A01 T00700006  RH  064%=      5-min Rain = 0
KEA1 180136Z 11000KT 07/01 A3012 RMK A01 T00740008  RH  063%=      5-min Rain = 0
KEA1 180137Z 09001KT 08/01 A3012 RMK A01 T00770008  RH  062%=      5-min Rain = 0
KEA1 180138Z 11002KT 08/01 A3012 RMK A01 T00770008  RH  061%=      5-min Rain = 0
KEA1 180139Z 12002KT 08/01 A3012 RMK A01 T00780008  RH  061%=      5-min Rain = 0
KEA1 180140Z 12001KT 08/01 A3012 RMK A01 T00800008  RH  060%=      5-min Rain = 0
KEA1 180141Z 12001KT 08/01 A3012 RMK A01 T00830008  RH  059%=      5-min Rain = 0
KEA1 180142Z 12001KT 08/01 A3012 RMK A01 T00840007  RH  059%=      5-min Rain = 0
KEA1 180143Z 12002KT 09/01 A3012 RMK A01 T00850007  RH  058%=      5-min Rain = 0
KEA1 180144Z 12002KT 09/01 A3012 RMK A01 T00850007  RH  058%=      5-min Rain = 0
KEA1 180145Z 12002KT 09/01 A3012 RMK A01 T00850007  RH  058%=      5-min Rain = 0
KEA1 180146Z 12003KT 09/01 A3012 RMK A01 T00860007  RH  058%=      5-min Rain = 0
KEA1 180147Z 13003KT 09/01 A3012 RMK A01 T00860006  RH  057%=      5-min Rain = 0
KEA1 180148Z 13004KT 09/01 A3012 RMK A01 T00860006  RH  057%=      5-min Rain = 0
KEA1 180149Z 13005KT 09/01 A3012 RMK A01 T00850006  RH  057%=      5-min Rain = 0
KEA1 180150Z 13005KT 08/01 A3012 RMK A01 T00840005  RH  058%=      5-min Rain = 0
KEA1 180151Z 13006KT 08/00 A3012 RMK A01 T00810003  RH  058%=      5-min Rain = 0
KEA1 180152Z 13006KT 08/00 A3012 RMK A01 T00790004  RH  059%=      5-min Rain = 0
KEA1 180153Z 13007KT 08/00 A3012 RMK A01 T00780004  RH  059%=      5-min Rain = 0
KEA1 180154Z 13007KT 08/00 A3012 RMK A01 T00770003  RH  059%=      5-min Rain = 0
KEA1 180155Z 13007KT 08/00 A3012 RMK A01 T00760002  RH  060%=      5-min Rain = 0
KEA1 180156Z 13007KT 07/00 A3012 RMK A01 T00740001  RH  060%=      5-min Rain = 0
KEA1 180157Z 13007KT 07/00 A3012 RMK A01 T007100-0  RH  060%=      5-min Rain = 0
KEA1 180158Z 14007KT 07/M00 A3012 RMK A01 T00691001  RH  061%=      5-min Rain = 0
KEA1 180159Z 14007KT 07/00 A3012 RMK A01 T006700-0  RH  062%=      5-min Rain = 0
KEA1 180200Z 14007KT 07/00 A3012 RMK A01 T006600-0  RH  063%=      5-min Rain = 0
KEA1 180201Z 14008KT 07/M00 A3012 RMK A01 T00651001  RH  063%=      5-min Rain = 0
KEA1 180202Z 14008KT 06/M00 A3012 RMK A01 T00631003  RH  063%=      5-min Rain = 0
KEA1 180203Z 14008KT 06/M01 A3012 RMK A01 T00601005  RH  063%=      5-min Rain = 0
KEA1 180204Z 14008KT 06/M01 A3012 RMK A01 T00571006  RH  064%=      5-min Rain = 0
KEA1 180205Z 14008KT 06/M01 A3012 RMK A01 T00551006  RH  065%=      5-min Rain = 0
KEA1 180206Z 14008KT 05/M01 A3012 RMK A01 T00531006  RH  066%=      5-min Rain = 0
KEA1 180207Z 14008KT 05/M01 A3012 RMK A01 T00521005  RH  067%=      5-min Rain = 0
KEA1 180208Z 14008KT 05/M00 A3012 RMK A01 T00511004  RH  067%=      5-min Rain = 0
KEA1 180209Z 14008KT 05/M00 A3012 RMK A01 T00521002  RH  068%=      5-min Rain = 0
KEA1 180210Z 13008KT 05/M00 A3012 RMK A01 T00541001  RH  068%=      5-min Rain = 0
KEA1 180211Z 13008KT 06/M00 A3012 RMK A01 T00551001  RH  067%=      5-min Rain = 0
KEA1 180212Z 13008KT 06/M00 A3012 RMK A01 T00561001  RH  067%=      5-min Rain = 0
KEA1 180213Z 13008KT 06/M00 A3012 RMK A01 T00571001  RH  066%=      5-min Rain = 0
KEA1 180214Z 13008KT 06/M00 A3012 RMK A01 T00571001  RH  066%=      5-min Rain = 0
KEA1 180215Z 14008KT 06/M00 A3012 RMK A01 T00561003  RH  066%=      5-min Rain = 0
KEA1 180216Z 14008KT 05/M00 A3012 RMK A01 T00541004  RH  066%=      5-min Rain = 0
KEA1 180217Z 14008KT 05/M01 A3012 RMK A01 T00531005  RH  067%=      5-min Rain = 0
KEA1 180218Z 14008KT 05/M01 A3012 RMK A01 T00511005  RH  067%=      5-min Rain = 0
KEA1 180219Z 14008KT 05/M00 A3012 RMK A01 T00511004  RH  068%=      5-min Rain = 0
KEA1 180220Z 14008KT 05/M00 A3012 RMK A01 T00521003  RH  068%=      5-min Rain = 0
KEA1 180221Z 14008KT 05/M00 A3012 RMK A01 T00521004  RH  067%=      5-min Rain = 0
KEA1 180222Z 14009KT 05/M01 A3012 RMK A01 T00511005  RH  067%=      5-min Rain = 0
KEA1 180223Z 14009KT 05/M01 A3012 RMK A01 T00501005  RH  067%=      5-min Rain = 0
KEA1 180224Z 14009KT 05/M01 A3012 RMK A01 T00491006  RH  068%=      5-min Rain = 0
KEA1 180225Z 14009KT 05/M01 A3012 RMK A01 T00491005  RH  068%=      5-min Rain = 0
KEA1 180226Z 14009KT 05/M01 A3012 RMK A01 T00491005  RH  068%=      5-min Rain = 0
KEA1 180227Z 14009KT 05/M01 A3012 RMK A01 T00481006  RH  068%=      5-min Rain = 0
KEA1 180228Z 14009KT 05/M01 A3012 RMK A01 T00461007  RH  069%=      5-min Rain = 0
KEA1 180229Z 15009KT 05/M01 A3012 RMK A01 T00461006  RH  069%=      5-min Rain = 0
KEA1 180230Z 15009KT 05/M01 A3012 RMK A01 T00451006  RH  069%=      5-min Rain = 0
KEA1 180231Z 15009KT 05/M01 A3012 RMK A01 T00451006  RH  069%=      5-min Rain = 0
KEA1 180232Z 15009KT 05/M01 A3012 RMK A01 T00451005  RH  070%=      5-min Rain = 0
KEA1 180233Z 15009KT 05/M01 A3012 RMK A01 T00461006  RH  069%=      5-min Rain = 0
KEA1 180234Z 15009KT 05/M01 A3012 RMK A01 T00461006  RH  069%=      5-min Rain = 0
KEA1 180235Z 15009KT 05/M01 A3012 RMK A01 T00451006  RH  069%=      5-min Rain = 0
KEA1 180236Z 15009KT 05/M01 A3012 RMK A01 T00451006  RH  070%=      5-min Rain = 0
KEA1 180237Z 15009KT 04/M01 A3012 RMK A01 T00441006  RH  070%=      5-min Rain = 0
KEA1 180238Z 15009KT 05/M01 A3012 RMK A01 T00451006  RH  070%=      5-min Rain = 0
KEA1 180239Z 15010KT 05/M01 A3012 RMK A01 T00451006  RH  070%=      5-min Rain = 0
KEA1 180240Z 15009KT 04/M01 A3012 RMK A01 T00441006  RH  070%=      5-min Rain = 0
KEA1 180241Z 15009KT 04/M01 A3013 RMK A01 T00431006  RH  070%=      5-min Rain = 0
KEA1 180242Z 15010KT 04/M01 A3013 RMK A01 T00421006  RH  071%=      5-min Rain = 0
KEA1 180243Z 15010KT 04/M01 A3013 RMK A01 T00421006  RH  071%=      5-min Rain = 0
KEA1 180244Z 15010KT 04/M01 A3013 RMK A01 T00421005  RH  071%=      5-min Rain = 0
KEA1 180245Z 15009KT 04/M01 A3013 RMK A01 T00431005  RH  071%=      5-min Rain = 0
KEA1 180246Z 15009KT 04/M00 A3013 RMK A01 T00441004  RH  071%=      5-min Rain = 0
KEA1 180247Z 15009KT 05/M00 A3013 RMK A01 T00451004  RH  071%=      5-min Rain = 0
KEA1 180248Z 15009KT 05/M00 A3013 RMK A01 T00451004  RH  071%=      5-min Rain = 0
KEA1 180249Z 15009KT 05/M00 A3013 RMK A01 T00451004  RH  071%=      5-min Rain = 0
KEA1 180250Z 15009KT 05/M00 A3013 RMK A01 T00451004  RH  070%=      5-min Rain = 0
KEA1 180251Z 15009KT 05/M00 A3013 RMK A01 T00451004  RH  070%=      5-min Rain = 0
KEA1 180252Z 15009KT 05/M00 A3013 RMK A01 T00461003  RH  070%=      5-min Rain = 0
KEA1 180253Z 15009KT 05/M00 A3013 RMK A01 T00451003  RH  071%=      5-min Rain = 0
KEA1 180254Z 15008KT 05/M00 A3013 RMK A01 T00451003  RH  071%=      5-min Rain = 0
KEA1 180255Z 15008KT 05/M00 A3013 RMK A01 T00461003  RH  070%=      5-min Rain = 0
KEA1 180256Z 15009KT 05/M00 A3013 RMK A01 T00451004  RH  070%=      5-min Rain = 0
KEA1 180257Z 15009KT 05/M00 A3013 RMK A01 T00451004  RH  071%=      5-min Rain = 0
KEA1 180258Z 15009KT 04/M01 A3013 RMK A01 T00441005  RH  071%=      5-min Rain = 0
KEA1 180259Z 15009KT 04/M01 A3013 RMK A01 T00431005  RH  071%=      5-min Rain = 0
KEA1 180300Z 15009KT 04/M01 A3013 RMK A01 T00421005  RH  071%=      5-min Rain = 0
KEA1 180301Z 15009KT 04/M01 A3013 RMK A01 T00411006  RH  072%=      5-min Rain = 0
KEA1 180302Z 15009KT 04/M01 A3013 RMK A01 T00401006  RH  072%=      5-min Rain = 0
KEA1 180303Z 15009KT 04/M01 A3013 RMK A01 T00391006  RH  072%=      5-min Rain = 0
KEA1 180304Z 15009KT 04/M01 A3013 RMK A01 T00391006  RH  072%=      5-min Rain = 0
KEA1 180305Z 15009KT 04/M01 A3013 RMK A01 T00391006  RH  072%=      5-min Rain = 0
KEA1 180306Z 15010KT 04/M01 A3013 RMK A01 T00391006  RH  072%=      5-min Rain = 0
KEA1 180307Z 15010KT 04/M01 A3013 RMK A01 T00401005  RH  072%=      5-min Rain = 0
KEA1 180308Z 15009KT 04/M01 A3013 RMK A01 T00391006  RH  072%=      5-min Rain = 0
KEA1 180309Z 15009KT 04/M01 A3013 RMK A01 T00401005  RH  072%=      5-min Rain = 0
KEA1 180310Z 15010KT 04/M01 A3013 RMK A01 T00401005  RH  072%=      5-min Rain = 0
KEA1 180311Z 15010KT 04/M01 A3012 RMK A01 T00401006  RH  072%=      5-min Rain = 0
KEA1 180312Z 15010KT 04/M01 A3012 RMK A01 T00391006  RH  072%=      5-min Rain = 0
KEA1 180313Z 15010KT 04/M01 A3012 RMK A01 T00381007  RH  073%=      5-min Rain = 0
KEA1 180314Z 15010KT 04/M01 A3012 RMK A01 T00381006  RH  073%=      5-min Rain = 0
KEA1 180315Z 15010KT 04/M01 A3012 RMK A01 T00371006  RH  073%=      5-min Rain = 0
KEA1 180316Z 15010KT 04/M01 A3012 RMK A01 T00371006  RH  074%=      5-min Rain = 0
KEA1 180317Z 15010KT 04/M01 A3012 RMK A01 T00371006  RH  074%=      5-min Rain = 0
KEA1 180318Z 15010KT 04/M01 A3012 RMK A01 T00371005  RH  074%=      5-min Rain = 0
KEA1 180319Z 15010KT 04/M01 A3012 RMK A01 T00371005  RH  074%=      5-min Rain = 0
KEA1 180320Z 15009KT 04/M01 A3012 RMK A01 T00381005  RH  074%=      5-min Rain = 0
KEA1 180321Z 15009KT 04/M00 A3012 RMK A01 T00391003  RH  074%=      5-min Rain = 0
KEA1 180322Z 15010KT 04/M00 A3012 RMK A01 T00401003  RH  074%=      5-min Rain = 0
KEA1 180323Z 15010KT 04/M00 A3012 RMK A01 T00411003  RH  073%=      5-min Rain = 0
KEA1 180324Z 16009KT 04/M00 A3012 RMK A01 T00411003  RH  073%=      5-min Rain = 0
KEA1 180325Z 16009KT 04/M00 A3012 RMK A01 T00421003  RH  073%=      5-min Rain = 0
KEA1 180326Z 16009KT 04/M00 A3012 RMK A01 T00421003  RH  073%=      5-min Rain = 0
KEA1 180327Z 16008KT 04/M00 A3012 RMK A01 T00421003  RH  073%=      5-min Rain = 0
KEA1 180328Z 16009KT 04/M00 A3012 RMK A01 T00411004  RH  073%=      5-min Rain = 0
KEA1 180329Z 16009KT 04/M00 A3012 RMK A01 T00401004  RH  073%=      5-min Rain = 0
KEA1 180330Z 16009KT 04/M00 A3012 RMK A01 T00401004  RH  073%=      5-min Rain = 0
KEA1 180331Z 16009KT 04/M00 A3012 RMK A01 T00401004  RH  073%=      5-min Rain = 0
KEA1 180332Z 16009KT 04/M01 A3012 RMK A01 T00401005  RH  073%=      5-min Rain = 0
KEA1 180333Z 16009KT 04/M01 A3012 RMK A01 T00401005  RH  073%=      5-min Rain = 0
KEA1 180334Z 16009KT 04/M00 A3012 RMK A01 T00391004  RH  073%=      5-min Rain = 0
KEA1 180335Z 16008KT 04/M01 A3012 RMK A01 T00381005  RH  073%=      5-min Rain = 0
KEA1 180336Z 17008KT 04/M01 A3012 RMK A01 T00381005  RH  073%=      5-min Rain = 0
KEA1 180337Z 17008KT 04/M00 A3012 RMK A01 T00391004  RH  074%=      5-min Rain = 0
KEA1 180338Z 17008KT 04/M00 A3012 RMK A01 T00391004  RH  074%=      5-min Rain = 0
KEA1 180339Z 17008KT 04/M01 A3012 RMK A01 T00381005  RH  073%=      5-min Rain = 0
KEA1 180340Z 17008KT 04/M01 A3012 RMK A01 T00381005  RH  073%=      5-min Rain = 0
KEA1 180341Z 17008KT 04/M01 A3012 RMK A01 T00371005  RH  074%=      5-min Rain = 0
KEA1 180342Z 17008KT 04/M01 A3012 RMK A01 T00361006  RH  074%=      5-min Rain = 0
KEA1 180343Z 17008KT 04/M01 A3012 RMK A01 T00351005  RH  075%=      5-min Rain = 0
KEA1 180344Z 17009KT 04/M01 A3012 RMK A01 T00351005  RH  075%=      5-min Rain = 0
KEA1 180345Z 17009KT 04/M01 A3012 RMK A01 T00351005  RH  075%=      5-min Rain = 0
KEA1 180346Z 17009KT 04/M01 A3012 RMK A01 T00361005  RH  075%=      5-min Rain = 0
KEA1 180347Z 17009KT 04/M01 A3012 RMK A01 T00361005  RH  075%=      5-min Rain = 0
KEA1 180348Z 17009KT 04/M01 A3012 RMK A01 T00351005  RH  075%=      5-min Rain = 0
KEA1 180349Z 17009KT 04/M01 A3012 RMK A01 T00351005  RH  075%=      5-min Rain = 0
KEA1 180350Z 17009KT 04/M01 A3012 RMK A01 T00351005  RH  075%=      5-min Rain = 0
KEA1 180351Z 17009KT 04/M01 A3012 RMK A01 T00351006  RH  075%=      5-min Rain = 0
KEA1 180352Z 17008KT 03/M01 A3012 RMK A01 T00341007  RH  075%=      5-min Rain = 0
KEA1 180353Z 17008KT 03/M01 A3012 RMK A01 T00321008  RH  075%=      5-min Rain = 0
KEA1 180354Z 17007KT 03/M01 A3012 RMK A01 T00311008  RH  075%=      5-min Rain = 0
KEA1 180355Z 17008KT 03/M01 A3012 RMK A01 T00311007  RH  076%=      5-min Rain = 0
KEA1 180356Z 17008KT 03/M01 A3012 RMK A01 T00311007  RH  076%=      5-min Rain = 0
KEA1 180357Z 18007KT 03/M01 A3012 RMK A01 T00311007  RH  076%=      5-min Rain = 0
KEA1 180358Z 18008KT 03/M01 A3012 RMK A01 T00321007  RH  076%=      5-min Rain = 0
KEA1 180359Z 18008KT 03/M01 A3012 RMK A01 T00321007  RH  076%=      5-min Rain = 0
KEA1 180400Z 18008KT 03/M01 A3012 RMK A01 T00321007  RH  075%=      5-min Rain = 0
KEA1 180401Z 18008KT 03/M01 A3012 RMK A01 T00321007  RH  076%=      5-min Rain = 0
KEA1 180402Z 18008KT 03/M01 A3012 RMK A01 T00321006  RH  076%=      5-min Rain = 0
KEA1 180403Z 18008KT 03/M01 A3012 RMK A01 T00331006  RH  076%=      5-min Rain = 0
KEA1 180404Z 18009KT 03/M01 A3012 RMK A01 T00331007  RH  075%=      5-min Rain = 0
KEA1 180405Z 18009KT 03/M01 A3012 RMK A01 T00331007  RH  075%=      5-min Rain = 0
KEA1 180406Z 18009KT 03/M01 A3012 RMK A01 T00341007  RH  075%=      5-min Rain = 0
KEA1 180407Z 18009KT 03/M01 A3012 RMK A01 T00331007  RH  075%=      5-min Rain = 0
KEA1 180408Z 18009KT 03/M01 A3012 RMK A01 T00331008  RH  075%=      5-min Rain = 0
KEA1 180409Z 18009KT 03/M01 A3012 RMK A01 T00331008  RH  075%=      5-min Rain = 0
KEA1 180410Z 18010KT 03/M01 A3012 RMK A01 T00321007  RH  075%=      5-min Rain = 0
KEA1 180411Z 18009KT 03/M01 A3012 RMK A01 T00331007  RH  075%=      5-min Rain = 0
KEA1 180412Z 18010KT 03/M01 A3012 RMK A01 T00331007  RH  075%=      5-min Rain = 0
KEA1 180413Z 18010KT 03/M01 A3012 RMK A01 T00331007  RH  075%=      5-min Rain = 0
KEA1 180414Z 18010KT 03/M01 A3012 RMK A01 T00331007  RH  075%=      5-min Rain = 0
KEA1 180415Z 18010KT 03/M01 A3012 RMK A01 T00331007  RH  075%=      5-min Rain = 0
KEA1 180416Z 18010KT 03/M01 A3012 RMK A01 T00341006  RH  075%=      5-min Rain = 0
KEA1 180417Z 18010KT 03/M01 A3012 RMK A01 T00341006  RH  075%=      5-min Rain = 0
KEA1 180418Z 18010KT 04/M01 A3012 RMK A01 T00351005  RH  075%=      5-min Rain = 0
KEA1 180419Z 18010KT 04/M01 A3012 RMK A01 T00361005  RH  075%=      5-min Rain = 0
KEA1 180420Z 18010KT 04/M01 A3012 RMK A01 T00361005  RH  074%=      5-min Rain = 0
KEA1 180421Z 18009KT 04/M01 A3012 RMK A01 T00371005  RH  074%=      5-min Rain = 0
KEA1 180422Z 18009KT 04/M00 A3012 RMK A01 T00371004  RH  074%=      5-min Rain = 0
KEA1 180423Z 18009KT 04/M00 A3012 RMK A01 T00391003  RH  074%=      5-min Rain = 0
KEA1 180424Z 18009KT 04/M00 A3012 RMK A01 T00401002  RH  074%=      5-min Rain = 0
KEA1 180425Z 18009KT 04/M00 A3011 RMK A01 T00411003  RH  073%=      5-min Rain = 0
KEA1 180426Z 18010KT 04/M00 A3011 RMK A01 T00421003  RH  073%=      5-min Rain = 0
KEA1 180427Z 18010KT 04/M00 A3011 RMK A01 T00421003  RH  072%=      5-min Rain = 0
KEA1 180428Z 18010KT 04/M00 A3011 RMK A01 T00421003  RH  072%=      5-min Rain = 0
KEA1 180429Z 18010KT 04/M00 A3011 RMK A01 T00421003  RH  072%=      5-min Rain = 0
KEA1 180430Z 18010KT 04/M00 A3011 RMK A01 T00421003  RH  073%=      5-min Rain = 0
KEA1 180431Z 18010KT 04/M00 A3011 RMK A01 T00431002  RH  073%=      5-min Rain = 0
KEA1 180432Z 18011KT 04/M00 A3011 RMK A01 T00431003  RH  072%=      5-min Rain = 0
KEA1 180433Z 18011KT 04/M00 A3011 RMK A01 T00431003  RH  072%=      5-min Rain = 0
KEA1 180434Z 18011KT 04/M00 A3011 RMK A01 T00431003  RH  072%=      5-min Rain = 0
KEA1 180435Z 18011KT 04/M00 A3011 RMK A01 T00441002  RH  072%=      5-min Rain = 0
KEA1 180436Z 18011KT 05/M00 A3011 RMK A01 T00451002  RH  072%=      5-min Rain = 0
KEA1 180437Z 18011KT 05/M00 A3011 RMK A01 T00451003  RH  071%=      5-min Rain = 0
KEA1 180438Z 18011KT 04/M00 A3011 RMK A01 T00441004  RH  071%=      5-min Rain = 0
KEA1 180439Z 18011KT 04/M01 A3011 RMK A01 T00411005  RH  072%=      5-min Rain = 0
KEA1 180440Z 18011KT 04/M01 A3011 RMK A01 T00391006  RH  072%=      5-min Rain = 0
KEA1 180441Z 18011KT 04/M01 A3011 RMK A01 T00381006  RH  073%=      5-min Rain = 0
KEA1 180442Z 18012KT 04/M01 A3011 RMK A01 T00371006  RH  073%=      5-min Rain = 0
KEA1 180443Z 18011KT 04/M01 A3011 RMK A01 T00381005  RH  074%=      5-min Rain = 0
KEA1 180444Z 18011KT 04/M01 A3011 RMK A01 T00371005  RH  074%=      5-min Rain = 0
KEA1 180445Z 18011KT 04/M01 A3011 RMK A01 T00371005  RH  074%=      5-min Rain = 0
KEA1 180446Z 18011KT 04/M01 A3011 RMK A01 T00371005  RH  074%=      5-min Rain = 0
KEA1 180447Z 18011KT 04/M01 A3011 RMK A01 T00371005  RH  074%=      5-min Rain = 0
KEA1 180448Z 18011KT 04/M01 A3011 RMK A01 T00361005  RH  075%=      5-min Rain = 0
KEA1 180449Z 19011KT 04/M01 A3011 RMK A01 T00361005  RH  075%=      5-min Rain = 0
KEA1 180450Z 19011KT 04/M01 A3011 RMK A01 T00361005  RH  075%=      5-min Rain = 0
KEA1 180451Z 19011KT 04/M01 A3011 RMK A01 T00361005  RH  075%=      5-min Rain = 0
KEA1 180452Z 19010KT 04/M00 A3011 RMK A01 T00361004  RH  075%=      5-min Rain = 0
KEA1 180453Z 19010KT 04/M00 A3011 RMK A01 T00361004  RH  075%=      5-min Rain = 0
KEA1 180454Z 19010KT 04/M00 A3011 RMK A01 T00361004  RH  075%=      5-min Rain = 0
KEA1 180455Z 19010KT 04/M00 A3011 RMK A01 T00361004  RH  075%=      5-min Rain = 0
KEA1 180456Z 19010KT 04/M00 A3011 RMK A01 T00371003  RH  075%=      5-min Rain = 0
KEA1 180457Z 19010KT 04/M00 A3011 RMK A01 T00371003  RH  075%=      5-min Rain = 0
KEA1 180458Z 19010KT 04/M00 A3011 RMK A01 T00381003  RH  075%=      5-min Rain = 0
KEA1 180459Z 19010KT 04/M00 A3011 RMK A01 T00381003  RH  075%=      5-min Rain = 0
KEA1 180500Z 19010KT 04/M00 A301 RMK A01 T00381003  RH  075%=      5-min Rain = 0
KEA1 180501Z 19010KT 04/M00 A301 RMK A01 T00391002  RH  075%=      5-min Rain = 0
KEA1 180502Z 19010KT 04/M00 A301 RMK A01 T00401001  RH  074%=      5-min Rain = 0
KEA1 180503Z 18010KT 04/M00 A301 RMK A01 T00411001  RH  074%=      5-min Rain = 0
KEA1 180504Z 18009KT 04/M00 A301 RMK A01 T00411002  RH  074%=      5-min Rain = 0
KEA1 180505Z 18009KT 04/M00 A301 RMK A01 T00401002  RH  074%=      5-min Rain = 0
KEA1 180506Z 18009KT 04/M00 A301 RMK A01 T00391003  RH  074%=      5-min Rain = 0
KEA1 180507Z 19009KT 04/M00 A301 RMK A01 T00381003  RH  075%=      5-min Rain = 0
KEA1 180508Z 19009KT 04/M00 A301 RMK A01 T00371002  RH  075%=      5-min Rain = 0
KEA1 180509Z 19009KT 04/M00 A301 RMK A01 T00381002  RH  075%=      5-min Rain = 0
KEA1 180510Z 19009KT 04/M00 A3011 RMK A01 T00381002  RH  075%=      5-min Rain = 0
KEA1 180511Z 19009KT 04/M00 A3011 RMK A01 T00381002  RH  075%=      5-min Rain = 0
KEA1 180512Z 19008KT 04/M00 A3011 RMK A01 T00381001  RH  075%=      5-min Rain = 0
KEA1 180513Z 19008KT 04/M00 A3011 RMK A01 T00391002  RH  075%=      5-min Rain = 0
KEA1 180514Z 19008KT 04/M00 A3011 RMK A01 T00391002  RH  075%=      5-min Rain = 0
KEA1 180515Z 19008KT 04/M00 A3011 RMK A01 T00381002  RH  075%=      5-min Rain = 0
KEA1 180516Z 19009KT 04/M00 A3011 RMK A01 T00381002  RH  075%=      5-min Rain = 0
KEA1 180517Z 19009KT 04/M00 A3011 RMK A01 T00371002  RH  075%=      5-min Rain = 0
KEA1 180518Z 19009KT 04/M00 A3011 RMK A01 T00371002  RH  075%=      5-min Rain = 0
KEA1 180519Z 19010KT 04/M00 A3011 RMK A01 T00371003  RH  076%=      5-min Rain = 0
KEA1 180520Z 19009KT 04/M00 A3011 RMK A01 T00361003  RH  075%=      5-min Rain = 0
KEA1 180521Z 19009KT 04/M00 A3011 RMK A01 T00361003  RH  076%=      5-min Rain = 0
KEA1 180522Z 19009KT 04/M00 A3011 RMK A01 T00351003  RH  076%=      5-min Rain = 0
KEA1 180523Z 19009KT 04/M00 A301 RMK A01 T00351004  RH  076%=      5-min Rain = 0
KEA1 180524Z 19010KT 03/M00 A301 RMK A01 T00341004  RH  076%=      5-min Rain = 0
KEA1 180525Z 19010KT 03/M00 A301 RMK A01 T00341004  RH  076%=      5-min Rain = 0
KEA1 180526Z 20010KT 03/M00 A301 RMK A01 T00341004  RH  077%=      5-min Rain = 0
KEA1 180527Z 20010KT 03/M00 A301 RMK A01 T00341003  RH  077%=      5-min Rain = 0
KEA1 180528Z 19010KT 03/M00 A301 RMK A01 T00341004  RH  077%=      5-min Rain = 0
KEA1 180529Z 20010KT 03/M00 A301 RMK A01 T00341004  RH  076%=      5-min Rain = 0
KEA1 180530Z 19010KT 04/M00 A301 RMK A01 T00351003  RH  076%=      5-min Rain = 0
KEA1 180531Z 19010KT 04/M00 A301 RMK A01 T00351003  RH  076%=      5-min Rain = 0
KEA1 180532Z 19010KT 04/M00 A301 RMK A01 T00361003  RH  076%=      5-min Rain = 0
KEA1 180533Z 19009KT 04/M00 A301 RMK A01 T00361003  RH  076%=      5-min Rain = 0
KEA1 180534Z 19009KT 04/M00 A301 RMK A01 T00371002  RH  076%=      5-min Rain = 0
KEA1 180535Z 19009KT 04/M00 A301 RMK A01 T00371002  RH  075%=      5-min Rain = 0
KEA1 180536Z 19009KT 04/M00 A3009 RMK A01 T00371003  RH  075%=      5-min Rain = 0
KEA1 180537Z 19009KT 04/M00 A3009 RMK A01 T00371002  RH  075%=      5-min Rain = 0
KEA1 180538Z 19009KT 04/M00 A3009 RMK A01 T00371002  RH  076%=      5-min Rain = 0
KEA1 180539Z 19009KT 04/M00 A3009 RMK A01 T00371002  RH  076%=      5-min Rain = 0
KEA1 180540Z 19009KT 04/M00 A3009 RMK A01 T00371002  RH  076%=      5-min Rain = 0
KEA1 180541Z 19009KT 04/M00 A3009 RMK A01 T00371003  RH  075%=      5-min Rain = 0
KEA1 180542Z 19009KT 04/M00 A3009 RMK A01 T00361003  RH  076%=      5-min Rain = 0
KEA1 180543Z 19009KT 04/M00 A3009 RMK A01 T00351003  RH  076%=      5-min Rain = 0
KEA1 180544Z 20009KT 04/M00 A3009 RMK A01 T00351004  RH  076%=      5-min Rain = 0
KEA1 180545Z 20008KT 03/M00 A3009 RMK A01 T00341004  RH  076%=      5-min Rain = 0
KEA1 180546Z 20009KT 03/M00 A3009 RMK A01 T00341004  RH  077%=      5-min Rain = 0
KEA1 180547Z 20009KT 03/M00 A3009 RMK A01 T00331004  RH  077%=      5-min Rain = 0
KEA1 180548Z 20008KT 03/M00 A3009 RMK A01 T00331003  RH  077%=      5-min Rain = 0
KEA1 180549Z 20009KT 03/M00 A3009 RMK A01 T00341004  RH  077%=      5-min Rain = 0
KEA1 180550Z 20009KT 03/M00 A3009 RMK A01 T00341003  RH  077%=      5-min Rain = 0
KEA1 180551Z 20009KT 04/M00 A3009 RMK A01 T00351003  RH  076%=      5-min Rain = 0
KEA1 180552Z 20009KT 04/M00 A3009 RMK A01 T00361002  RH  076%=      5-min Rain = 0
KEA1 180553Z 20009KT 04/M00 A3009 RMK A01 T00371002  RH  076%=      5-min Rain = 0
KEA1 180554Z 20009KT 04/M00 A3009 RMK A01 T00381002  RH  075%=      5-min Rain = 0
KEA1 180555Z 20009KT 04/M00 A3009 RMK A01 T00391001  RH  075%=      5-min Rain = 0
KEA1 180556Z 20009KT 04/M00 A3009 RMK A01 T00391002  RH  075%=      5-min Rain = 0
KEA1 180557Z 20009KT 04/M00 A3009 RMK A01 T00391002  RH  075%=      5-min Rain = 0
KEA1 180558Z 20009KT 04/M00 A3009 RMK A01 T00391002  RH  074%=      5-min Rain = 0
KEA1 180559Z 20009KT 04/M00 A3009 RMK A01 T00391002  RH  075%=      5-min Rain = 0

Page generated in 0.0812 seconds.